Observation data for Borger on 03/05/2021      Previous  Date  Next       Current Mesonet Observations  Soil Data  Daily Summary Page  Observations in Plain Language
KBO2 050600Z 31019KT 09/M00 A2992 RMK A01 T00911003  RH  052%=      5-min Rain = 0
KBO2 050601Z 31017KT 09/M00 A2992 RMK A01 T00921003  RH  052%=      5-min Rain = 0
KBO2 050602Z 31016KT 09/M00 A2992 RMK A01 T00921003  RH  051%=      5-min Rain = 0
KBO2 050603Z 31016G21KT 09/M00 A2992 RMK A01 T00911003  RH  052%=      5-min Rain = 0
KBO2 050604Z 32018G25KT 09/M00 A2992 RMK A01 T00901003  RH  052%=      5-min Rain = 0
KBO2 050605Z 31017KT 09/M00 A2992 RMK A01 T00911003  RH  052%=      5-min Rain = 0
KBO2 050606Z 31018G26KT 09/M00 A2992 RMK A01 T00911003  RH  052%=      5-min Rain = 0
KBO2 050607Z 31019G26KT 09/M00 A2992 RMK A01 T00911003  RH  052%=      5-min Rain = 0
KBO2 050608Z 32018KT 09/M00 A2992 RMK A01 T00911003  RH  052%=      5-min Rain = 0
KBO2 050609Z 32018KT 09/M00 A2992 RMK A01 T00911003  RH  052%=      5-min Rain = 0
KBO2 050610Z 32017KT 09/M00 A2992 RMK A01 T00911003  RH  052%=      5-min Rain = 0
KBO2 050611Z 32018G24KT 09/M00 A2992 RMK A01 T00901004  RH  052%=      5-min Rain = 0
KBO2 050612Z 32019G26KT 09/M00 A2992 RMK A01 T00891003  RH  052%=      5-min Rain = 0
KBO2 050613Z 32021KT 09/M00 A2992 RMK A01 T00891003  RH  052%=      5-min Rain = 0
KBO2 050614Z 32019G24KT 09/M00 A2992 RMK A01 T00891003  RH  052%=      5-min Rain = 0
KBO2 050615Z 32018KT 09/M00 A2992 RMK A01 T00881004  RH  052%=      5-min Rain = 0
KBO2 050616Z 32016KT 09/M00 A2992 RMK A01 T00871004  RH  053%=      5-min Rain = 0
KBO2 050617Z 32017G24KT 09/M00 A2992 RMK A01 T00861004  RH  053%=      5-min Rain = 0
KBO2 050618Z 32019G24KT 09/M00 A2992 RMK A01 T00861003  RH  053%=      5-min Rain = 0
KBO2 050619Z 32014KT 09/M00 A2992 RMK A01 T00861004  RH  053%=      5-min Rain = 0
KBO2 050620Z 31016G21KT 09/M00 A2992 RMK A01 T00851004  RH  054%=      5-min Rain = 0
KBO2 050621Z 32015KT 08/M00 A2992 RMK A01 T00841004  RH  054%=      5-min Rain = 0
KBO2 050622Z 32017KT 08/M00 A2992 RMK A01 T00841003  RH  054%=      5-min Rain = 0
KBO2 050623Z 31016G21KT 08/M00 A2992 RMK A01 T00831003  RH  055%=      5-min Rain = 0
KBO2 050624Z 31017KT 08/M00 A2992 RMK A01 T00831003  RH  055%=      5-min Rain = 0
KBO2 050625Z 31015KT 08/M00 A2992 RMK A01 T00831003  RH  055%=      5-min Rain = 0
KBO2 050626Z 31014KT 08/M00 A2992 RMK A01 T00821004  RH  055%=      5-min Rain = 0
KBO2 050627Z 31013KT 08/M00 A2992 RMK A01 T00811004  RH  055%=      5-min Rain = 0
KBO2 050628Z 31013KT 08/M00 A2992 RMK A01 T00791004  RH  056%=      5-min Rain = 0
KBO2 050629Z 31014KT 08/M00 A2992 RMK A01 T00781004  RH  056%=      5-min Rain = 0
KBO2 050630Z 31014KT 08/M00 A2992 RMK A01 T00781003  RH  057%=      5-min Rain = 0
KBO2 050631Z 31015KT 08/M00 A2992 RMK A01 T00781003  RH  057%=      5-min Rain = 0
KBO2 050632Z 31015KT 08/M00 A2992 RMK A01 T00781002  RH  057%=      5-min Rain = 0
KBO2 050633Z 31014KT 08/M00 A2992 RMK A01 T00781002  RH  057%=      5-min Rain = 0
KBO2 050634Z 31017KT 08/M00 A2992 RMK A01 T00781002  RH  057%=      5-min Rain = 0
KBO2 050635Z 31016G21KT 08/M00 A2992 RMK A01 T00781001  RH  057%=      5-min Rain = 0
KBO2 050636Z 31017G25KT 08/M00 A2992 RMK A01 T00781001  RH  057%=      5-min Rain = 0
KBO2 050637Z 31016G21KT 08/00 A2992 RMK A01 T007800-0  RH  057%=      5-min Rain = 0
KBO2 050638Z 31016KT 08/00 A2992 RMK A01 T007900-0  RH  057%=      5-min Rain = 0
KBO2 050639Z 31017KT 08/00 A2992 RMK A01 T007800-0  RH  058%=      5-min Rain = 0
KBO2 050640Z 31016KT 08/00 A2992 RMK A01 T00780000  RH  058%=      5-min Rain = 0
KBO2 050641Z 31017G22KT 08/00 A2992 RMK A01 T00780001  RH  058%=      5-min Rain = 0
KBO2 050642Z 31017G22KT 08/00 A2992 RMK A01 T00780002  RH  058%=      5-min Rain = 0
KBO2 050643Z 31017KT 08/00 A2992 RMK A01 T00780002  RH  058%=      5-min Rain = 0
KBO2 050644Z 31016KT 08/00 A2992 RMK A01 T00770002  RH  059%=      5-min Rain = 0
KBO2 050645Z 31016KT 08/00 A2992 RMK A01 T00770002  RH  059%=      5-min Rain = 0
KBO2 050646Z 31016KT 08/00 A2992 RMK A01 T00770002  RH  059%=      5-min Rain = 0
KBO2 050647Z 31015KT 08/00 A2992 RMK A01 T00770002  RH  059%=      5-min Rain = 0
KBO2 050648Z 31016KT 08/00 A2992 RMK A01 T00760002  RH  060%=      5-min Rain = 0
KBO2 050649Z 31017G22KT 08/00 A2992 RMK A01 T00760003  RH  060%=      5-min Rain = 0
KBO2 050650Z 31015KT 08/00 A2992 RMK A01 T00770004  RH  060%=      5-min Rain = 0
KBO2 050651Z 31015G21KT 08/00 A2992 RMK A01 T00770003  RH  060%=      5-min Rain = 0
KBO2 050652Z 31015G20KT 08/00 A2992 RMK A01 T00760004  RH  060%=      5-min Rain = 0
KBO2 050653Z 31014KT 08/00 A2992 RMK A01 T00770004  RH  060%=      5-min Rain = 0
KBO2 050654Z 31014KT 08/00 A2992 RMK A01 T00760004  RH  060%=      5-min Rain = 0
KBO2 050655Z 31015KT 08/00 A2992 RMK A01 T00760004  RH  060%=      5-min Rain = 0
KBO2 050656Z 31015G20KT 08/00 A2992 RMK A01 T00750004  RH  061%=      5-min Rain = 0
KBO2 050657Z 31017G22KT 08/01 A2992 RMK A01 T00750005  RH  061%=      5-min Rain = 0
KBO2 050658Z 31017KT 08/01 A2992 RMK A01 T00760006  RH  061%=      5-min Rain = 0
KBO2 050659Z 31017G22KT 08/01 A2992 RMK A01 T00770006  RH  061%=      5-min Rain = 0
KBO2 050700Z 32016KT 08/01 A2992 RMK A01 T00770007  RH  061%=      5-min Rain = 0
KBO2 050701Z 31016KT 08/01 A2992 RMK A01 T00780007  RH  061%=      5-min Rain = 0
KBO2 050702Z 31015KT 08/01 A2992 RMK A01 T00780007  RH  061%=      5-min Rain = 0
KBO2 050703Z 31015KT 08/01 A2992 RMK A01 T00780007  RH  061%=      5-min Rain = 0
KBO2 050704Z 31014KT 08/01 A2992 RMK A01 T00770007  RH  061%=      5-min Rain = 0
KBO2 050705Z 31013KT 08/01 A2992 RMK A01 T00770008  RH  061%=      5-min Rain = 0
KBO2 050706Z 31015KT 08/01 A2992 RMK A01 T00770008  RH  061%=      5-min Rain = 0
KBO2 050707Z 32015KT 08/01 A2992 RMK A01 T00770008  RH  062%=      5-min Rain = 0
KBO2 050708Z 31017G22KT 08/01 A2992 RMK A01 T00770008  RH  062%=      5-min Rain = 0
KBO2 050709Z 31013KT 08/01 A2992 RMK A01 T00770009  RH  062%=      5-min Rain = 0
KBO2 050710Z 31014KT 08/01 A2992 RMK A01 T00760008  RH  062%=      5-min Rain = 0
KBO2 050711Z 31015KT 08/01 A2992 RMK A01 T00760008  RH  062%=      5-min Rain = 0
KBO2 050712Z 31013KT 08/01 A2992 RMK A01 T00760009  RH  062%=      5-min Rain = 0
KBO2 050713Z 31015G20KT 08/01 A2992 RMK A01 T00750008  RH  063%=      5-min Rain = 0
KBO2 050714Z 31013KT 08/01 A2992 RMK A01 T00750009  RH  063%=      5-min Rain = 0
KBO2 050715Z 31012KT 08/01 A2992 RMK A01 T00750009  RH  062%=      5-min Rain = 0
KBO2 050716Z 31011KT 07/01 A2992 RMK A01 T00740008  RH  063%=      5-min Rain = 0
KBO2 050717Z 31013KT 07/01 A2992 RMK A01 T00730008  RH  063%=      5-min Rain = 0
KBO2 050718Z 31013KT 07/01 A2992 RMK A01 T00730009  RH  064%=      5-min Rain = 0
KBO2 050719Z 31013KT 07/01 A2992 RMK A01 T00730009  RH  064%=      5-min Rain = 0
KBO2 050720Z 30013KT 07/01 A2992 RMK A01 T00730009  RH  064%=      5-min Rain = 0
KBO2 050721Z 30015KT 07/01 A2992 RMK A01 T00730009  RH  064%=      5-min Rain = 0
KBO2 050722Z 30014KT 07/01 A2992 RMK A01 T00740009  RH  064%=      5-min Rain = 0
KBO2 050723Z 30015G20KT 07/01 A2992 RMK A01 T00740010  RH  064%=      5-min Rain = 0
KBO2 050724Z 30013KT 08/01 A2992 RMK A01 T00750010  RH  063%=      5-min Rain = 0
KBO2 050725Z 30014KT 07/01 A2992 RMK A01 T00740009  RH  064%=      5-min Rain = 0
KBO2 050726Z 31013KT 07/01 A2992 RMK A01 T00740010  RH  064%=      5-min Rain = 0
KBO2 050727Z 30014KT 07/01 A2992 RMK A01 T00730010  RH  064%=      5-min Rain = 0
KBO2 050728Z 31013KT 07/01 A2992 RMK A01 T00730010  RH  064%=      5-min Rain = 0
KBO2 050729Z 31015KT 07/01 A2992 RMK A01 T00730010  RH  064%=      5-min Rain = 0
KBO2 050730Z 31013G18KT 07/01 A2992 RMK A01 T00740011  RH  064%=      5-min Rain = 0
KBO2 050731Z 31015KT 07/01 A2992 RMK A01 T00740010  RH  064%=      5-min Rain = 0
KBO2 050732Z 31013G19KT 07/01 A2992 RMK A01 T00740011  RH  064%=      5-min Rain = 0
KBO2 050733Z 31014KT 07/01 A2992 RMK A01 T00740011  RH  064%=      5-min Rain = 0
KBO2 050734Z 31012KT 07/01 A2992 RMK A01 T00740011  RH  064%=      5-min Rain = 0
KBO2 050735Z 31012KT 07/01 A2992 RMK A01 T00730010  RH  064%=      5-min Rain = 0
KBO2 050736Z 32012KT 07/01 A2992 RMK A01 T00730010  RH  064%=      5-min Rain = 0
KBO2 050737Z 31014KT 07/01 A2992 RMK A01 T00730011  RH  065%=      5-min Rain = 0
KBO2 050738Z 31014KT 07/01 A2992 RMK A01 T00730012  RH  065%=      5-min Rain = 0
KBO2 050739Z 31013G20KT 07/01 A2992 RMK A01 T00740011  RH  064%=      5-min Rain = 0
KBO2 050740Z 31014G19KT 07/01 A2992 RMK A01 T00740012  RH  065%=      5-min Rain = 0
KBO2 050741Z 31013KT 07/01 A2992 RMK A01 T00740012  RH  065%=      5-min Rain = 0
KBO2 050742Z 31012KT 07/01 A2992 RMK A01 T00740011  RH  064%=      5-min Rain = 0
KBO2 050743Z 31014KT 07/01 A2992 RMK A01 T00730012  RH  065%=      5-min Rain = 0
KBO2 050744Z 31011KT 07/01 A2992 RMK A01 T00730011  RH  065%=      5-min Rain = 0
KBO2 050745Z 31012KT 07/01 A2992 RMK A01 T00710010  RH  065%=      5-min Rain = 0
KBO2 050746Z 30013KT 07/01 A2992 RMK A01 T00710011  RH  066%=      5-min Rain = 0
KBO2 050747Z 31012KT 07/01 A2993 RMK A01 T00710012  RH  066%=      5-min Rain = 0
KBO2 050748Z 30012KT 07/01 A2993 RMK A01 T00710012  RH  066%=      5-min Rain = 0
KBO2 050749Z 30014KT 07/01 A2993 RMK A01 T00710012  RH  066%=      5-min Rain = 0
KBO2 050750Z 30013KT 07/01 A2993 RMK A01 T00700012  RH  066%=      5-min Rain = 0
KBO2 050751Z 30013KT 07/01 A2993 RMK A01 T00700012  RH  066%=      5-min Rain = 0
KBO2 050752Z 30014KT 07/01 A2993 RMK A01 T00700012  RH  066%=      5-min Rain = 0
KBO2 050753Z 30013G18KT 07/01 A2993 RMK A01 T00700012  RH  066%=      5-min Rain = 0
KBO2 050754Z 30013KT 07/01 A2993 RMK A01 T00700012  RH  066%=      5-min Rain = 0
KBO2 050755Z 29012KT 07/01 A2993 RMK A01 T00700012  RH  066%=      5-min Rain = 0
KBO2 050756Z 29013G18KT 07/01 A2993 RMK A01 T00700012  RH  067%=      5-min Rain = 0
KBO2 050757Z 30014KT 07/01 A2992 RMK A01 T00700013  RH  067%=      5-min Rain = 0
KBO2 050758Z 29013KT 07/01 A2992 RMK A01 T00710013  RH  067%=      5-min Rain = 0
KBO2 050759Z 29014KT 07/01 A2993 RMK A01 T00710013  RH  066%=      5-min Rain = 0
KBO2 050800Z 29015G20KT 07/01 A2993 RMK A01 T00720013  RH  066%=      5-min Rain = 0
KBO2 050801Z 30014KT 07/01 A2993 RMK A01 T00720013  RH  066%=      5-min Rain = 0
KBO2 050802Z 30014KT 07/01 A2993 RMK A01 T00720013  RH  066%=      5-min Rain = 0
KBO2 050803Z 29012KT 07/01 A2993 RMK A01 T00720013  RH  066%=      5-min Rain = 0
KBO2 050804Z 30014KT 07/01 A2993 RMK A01 T00710013  RH  066%=      5-min Rain = 0
KBO2 050805Z 30014KT 07/01 A2993 RMK A01 T00710013  RH  067%=      5-min Rain = 0
KBO2 050806Z 30015KT 07/01 A2993 RMK A01 T00710013  RH  067%=      5-min Rain = 0
KBO2 050807Z 30016G21KT 07/01 A2993 RMK A01 T00710014  RH  067%=      5-min Rain = 0
KBO2 050808Z 30014KT 07/01 A2993 RMK A01 T00720014  RH  067%=      5-min Rain = 0
KBO2 050809Z 30013KT 07/01 A2993 RMK A01 T00720013  RH  066%=      5-min Rain = 0
KBO2 050810Z 30012KT 07/01 A2993 RMK A01 T00710013  RH  066%=      5-min Rain = 0
KBO2 050811Z 30014KT 07/01 A2993 RMK A01 T00700013  RH  067%=      5-min Rain = 0
KBO2 050812Z 30013KT 07/01 A2993 RMK A01 T00700014  RH  067%=      5-min Rain = 0
KBO2 050813Z 30012KT 07/01 A2993 RMK A01 T00700013  RH  067%=      5-min Rain = 0
KBO2 050814Z 30012KT 07/01 A2993 RMK A01 T00700013  RH  067%=      5-min Rain = 0
KBO2 050815Z 30013KT 07/01 A2993 RMK A01 T00700013  RH  067%=      5-min Rain = 0
KBO2 050816Z 30014KT 07/01 A2993 RMK A01 T00700014  RH  068%=      5-min Rain = 0
KBO2 050817Z 30011KT 07/01 A2993 RMK A01 T00710014  RH  067%=      5-min Rain = 0
KBO2 050818Z 30013KT 07/01 A2993 RMK A01 T00700013  RH  067%=      5-min Rain = 0
KBO2 050819Z 29011KT 07/01 A2993 RMK A01 T00700013  RH  067%=      5-min Rain = 0
KBO2 050820Z 30012KT 07/01 A2993 RMK A01 T00700014  RH  067%=      5-min Rain = 0
KBO2 050821Z 29013KT 07/01 A2993 RMK A01 T00690014  RH  068%=      5-min Rain = 0
KBO2 050822Z 29011KT 07/01 A2993 RMK A01 T00690014  RH  068%=      5-min Rain = 0
KBO2 050823Z 30013KT 07/01 A2994 RMK A01 T00690014  RH  068%=      5-min Rain = 0
KBO2 050824Z 30010KT 07/01 A2994 RMK A01 T00700014  RH  068%=      5-min Rain = 0
KBO2 050825Z 30010KT 07/01 A2994 RMK A01 T00700014  RH  067%=      5-min Rain = 0
KBO2 050826Z 30011KT 07/01 A2994 RMK A01 T00690014  RH  068%=      5-min Rain = 0
KBO2 050827Z 30010KT 07/01 A2994 RMK A01 T00690014  RH  068%=      5-min Rain = 0
KBO2 050828Z 30009KT 07/01 A2994 RMK A01 T00690014  RH  068%=      5-min Rain = 0
KBO2 050829Z 31009KT 07/01 A2994 RMK A01 T00680013  RH  068%=      5-min Rain = 0
KBO2 050830Z 30009KT 07/01 A2994 RMK A01 T00670013  RH  069%=      5-min Rain = 0
KBO2 050831Z 30009KT 07/01 A2994 RMK A01 T00660013  RH  069%=      5-min Rain = 0
KBO2 050832Z 30010KT 07/01 A2994 RMK A01 T00650012  RH  069%=      5-min Rain = 0
KBO2 050833Z 29010KT 06/01 A2994 RMK A01 T00640013  RH  070%=      5-min Rain = 0
KBO2 050834Z 29009KT 07/01 A2994 RMK A01 T00650014  RH  070%=      5-min Rain = 0
KBO2 050835Z 30008KT 07/01 A2994 RMK A01 T00660013  RH  069%=      5-min Rain = 0
KBO2 050836Z 29008KT 06/01 A2994 RMK A01 T00640012  RH  069%=      5-min Rain = 0
KBO2 050837Z 29009KT 06/01 A2994 RMK A01 T00630012  RH  070%=      5-min Rain = 0
KBO2 050838Z 29008KT 06/01 A2994 RMK A01 T00630013  RH  070%=      5-min Rain = 0
KBO2 050839Z 29009KT 06/01 A2994 RMK A01 T00620012  RH  070%=      5-min Rain = 0
KBO2 050840Z 29008KT 06/01 A2994 RMK A01 T00620013  RH  071%=      5-min Rain = 0
KBO2 050841Z 29008KT 06/01 A2994 RMK A01 T00620012  RH  071%=      5-min Rain = 0
KBO2 050842Z 30010KT 06/01 A2994 RMK A01 T00620013  RH  071%=      5-min Rain = 0
KBO2 050843Z 29009KT 06/01 A2994 RMK A01 T00620013  RH  071%=      5-min Rain = 0
KBO2 050844Z 29010KT 06/01 A2994 RMK A01 T00630013  RH  071%=      5-min Rain = 0
KBO2 050845Z 29009KT 06/01 A2994 RMK A01 T00630013  RH  071%=      5-min Rain = 0
KBO2 050846Z 29010KT 06/01 A2994 RMK A01 T00630013  RH  070%=      5-min Rain = 0
KBO2 050847Z 29010KT 06/01 A2994 RMK A01 T00620013  RH  071%=      5-min Rain = 0
KBO2 050848Z 29009KT 06/01 A2994 RMK A01 T00610012  RH  071%=      5-min Rain = 0
KBO2 050849Z 29009KT 06/01 A2994 RMK A01 T00610013  RH  071%=      5-min Rain = 0
KBO2 050850Z 29009KT 06/01 A2994 RMK A01 T00610012  RH  071%=      5-min Rain = 0
KBO2 050851Z 29009KT 06/01 A2994 RMK A01 T00590011  RH  071%=      5-min Rain = 0
KBO2 050852Z 29011KT 06/01 A2994 RMK A01 T00580012  RH  072%=      5-min Rain = 0
KBO2 050853Z 29011KT 06/01 A2994 RMK A01 T00580012  RH  072%=      5-min Rain = 0
KBO2 050854Z 29011KT 06/01 A2994 RMK A01 T00580012  RH  072%=      5-min Rain = 0
KBO2 050855Z 29011KT 06/01 A2994 RMK A01 T00590012  RH  072%=      5-min Rain = 0
KBO2 050856Z 29011KT 06/01 A2994 RMK A01 T00590013  RH  072%=      5-min Rain = 0
KBO2 050857Z 29012KT 06/01 A2994 RMK A01 T00590013  RH  072%=      5-min Rain = 0
KBO2 050858Z 30012KT 06/01 A2994 RMK A01 T00590014  RH  073%=      5-min Rain = 0
KBO2 050859Z 30010KT 06/01 A2994 RMK A01 T00610014  RH  072%=      5-min Rain = 0
KBO2 050900Z 30010KT 06/01 A2995 RMK A01 T00610013  RH  072%=      5-min Rain = 0
KBO2 050901Z 30010KT 06/01 A2995 RMK A01 T00600013  RH  072%=      5-min Rain = 0
KBO2 050902Z 30011KT 06/01 A2995 RMK A01 T00600014  RH  072%=      5-min Rain = 0
KBO2 050903Z 30010KT 06/01 A2995 RMK A01 T00600014  RH  072%=      5-min Rain = 0
KBO2 050904Z 30010KT 06/01 A2995 RMK A01 T00600014  RH  072%=      5-min Rain = 0
KBO2 050905Z 30009KT 06/02 A2995 RMK A01 T00610015  RH  072%=      5-min Rain = 0
KBO2 050906Z 30008KT 06/02 A2995 RMK A01 T00620016  RH  072%=      5-min Rain = 0
KBO2 050907Z 30007KT 06/02 A2995 RMK A01 T00620016  RH  072%=      5-min Rain = 0
KBO2 050908Z 30007KT 06/02 A2995 RMK A01 T00620016  RH  073%=      5-min Rain = 0
KBO2 050909Z 30007KT 06/02 A2995 RMK A01 T00620016  RH  072%=      5-min Rain = 0
KBO2 050910Z 31007KT 06/02 A2996 RMK A01 T00620016  RH  072%=      5-min Rain = 0
KBO2 050911Z 31007KT 06/02 A2996 RMK A01 T00630017  RH  072%=      5-min Rain = 0
KBO2 050912Z 31006KT 06/02 A2996 RMK A01 T00640017  RH  072%=      5-min Rain = 0
KBO2 050913Z 32007KT 06/02 A2996 RMK A01 T00640017  RH  072%=      5-min Rain = 0
KBO2 050914Z 31007KT 07/02 A2996 RMK A01 T00650018  RH  072%=      5-min Rain = 0
KBO2 050915Z 32007KT 07/02 A2996 RMK A01 T00650018  RH  072%=      5-min Rain = 0
KBO2 050916Z 32008KT 07/02 A2995 RMK A01 T00660018  RH  072%=      5-min Rain = 0
KBO2 050917Z 31007KT 07/02 A2995 RMK A01 T00660018  RH  071%=      5-min Rain = 0
KBO2 050918Z 32008KT 07/02 A2995 RMK A01 T00660020  RH  072%=      5-min Rain = 0
KBO2 050919Z 32008KT 07/02 A2995 RMK A01 T00670020  RH  072%=      5-min Rain = 0
KBO2 050920Z 32007KT 07/02 A2995 RMK A01 T00670020  RH  072%=      5-min Rain = 0
KBO2 050921Z 33008KT 07/02 A2995 RMK A01 T00670020  RH  072%=      5-min Rain = 0
KBO2 050922Z 33008KT 07/02 A2995 RMK A01 T00670020  RH  072%=      5-min Rain = 0
KBO2 050923Z 32007KT 07/02 A2995 RMK A01 T00670021  RH  073%=      5-min Rain = 0
KBO2 050924Z 33007KT 07/02 A2995 RMK A01 T00670021  RH  073%=      5-min Rain = 0
KBO2 050925Z 33007KT 07/02 A2995 RMK A01 T00670021  RH  073%=      5-min Rain = 0
KBO2 050926Z 34007KT 07/02 A2995 RMK A01 T00680022  RH  073%=      5-min Rain = 0
KBO2 050927Z 34006KT 07/02 A2995 RMK A01 T00680021  RH  072%=      5-min Rain = 0
KBO2 050928Z 33005KT 07/02 A2995 RMK A01 T00670021  RH  072%=      5-min Rain = 0
KBO2 050929Z 34006KT 07/02 A2995 RMK A01 T00670021  RH  072%=      5-min Rain = 0
KBO2 050930Z 33008KT 07/02 A2995 RMK A01 T00670022  RH  073%=      5-min Rain = 0
KBO2 050931Z 34007KT 07/02 A2995 RMK A01 T00670023  RH  073%=      5-min Rain = 0
KBO2 050932Z 34006KT 07/02 A2995 RMK A01 T00670023  RH  073%=      5-min Rain = 0
KBO2 050933Z 33007KT 07/02 A2995 RMK A01 T00680023  RH  073%=      5-min Rain = 0
KBO2 050934Z 33006KT 07/02 A2995 RMK A01 T00680023  RH  073%=      5-min Rain = 0
KBO2 050935Z 34005KT 07/02 A2995 RMK A01 T00680023  RH  073%=      5-min Rain = 0
KBO2 050936Z 34006KT 07/02 A2995 RMK A01 T00680022  RH  073%=      5-min Rain = 0
KBO2 050937Z 33006KT 07/02 A2995 RMK A01 T00670022  RH  073%=      5-min Rain = 0
KBO2 050938Z 34008KT 07/02 A2995 RMK A01 T00670022  RH  073%=      5-min Rain = 0
KBO2 050939Z 34008KT 07/02 A2995 RMK A01 T00670024  RH  074%=      5-min Rain = 0
KBO2 050940Z 34008KT 07/02 A2995 RMK A01 T00670023  RH  074%=      5-min Rain = 0
KBO2 050941Z 33010KT 07/02 A2995 RMK A01 T00670024  RH  074%=      5-min Rain = 0
KBO2 050942Z 33009KT 07/02 A2995 RMK A01 T00670024  RH  074%=      5-min Rain = 0
KBO2 050943Z 32009KT 07/02 A2995 RMK A01 T00670024  RH  074%=      5-min Rain = 0
KBO2 050944Z 32010KT 07/03 A2994 RMK A01 T00670026  RH  075%=      5-min Rain = 0
KBO2 050945Z 33011KT 07/03 A2994 RMK A01 T00670027  RH  076%=      5-min Rain = 0
KBO2 050946Z 34012KT 07/03 A2995 RMK A01 T00670028  RH  076%=      5-min Rain = 0
KBO2 050947Z 34011KT 07/03 A2995 RMK A01 T00670029  RH  077%=      5-min Rain = 0
KBO2 050948Z 33011KT 07/03 A2995 RMK A01 T00670030  RH  077%=      5-min Rain = 0
KBO2 050949Z 34011KT 07/03 A2995 RMK A01 T00670032  RH  078%=      5-min Rain = 0
KBO2 050950Z 34010KT 07/03 A2995 RMK A01 T00670032  RH  078%=      5-min Rain = 0
KBO2 050951Z 33008KT 07/03 A2995 RMK A01 T00670032  RH  078%=      5-min Rain = 0
KBO2 050952Z 33008KT 07/03 A2995 RMK A01 T00670031  RH  078%=      5-min Rain = 0
KBO2 050953Z 33008KT 07/03 A2995 RMK A01 T00670031  RH  078%=      5-min Rain = 0
KBO2 050954Z 33009KT 07/03 A2995 RMK A01 T00670030  RH  077%=      5-min Rain = 0
KBO2 050955Z 33010KT 07/03 A2995 RMK A01 T00670030  RH  078%=      5-min Rain = 0
KBO2 050956Z 33009KT 07/03 A2995 RMK A01 T00670031  RH  078%=      5-min Rain = 0
KBO2 050957Z 33010KT 07/03 A2995 RMK A01 T00670031  RH  078%=      5-min Rain = 0
KBO2 050958Z 33009KT 07/03 A2995 RMK A01 T00670031  RH  078%=      5-min Rain = 0
KBO2 050959Z 32009KT 07/03 A2995 RMK A01 T00670032  RH  078%=      5-min Rain = 0
KBO2 051000Z 32010KT 07/03 A2995 RMK A01 T00670032  RH  079%=      5-min Rain = 0
KBO2 051001Z 32009KT 07/03 A2995 RMK A01 T00660033  RH  079%=      5-min Rain = 0
KBO2 051002Z 32007KT 07/03 A2995 RMK A01 T00660033  RH  079%=      5-min Rain = 0
KBO2 051003Z 32007KT 07/03 A2995 RMK A01 T00660033  RH  079%=      5-min Rain = 0
KBO2 051004Z 33007KT 07/03 A2995 RMK A01 T00660033  RH  079%=      5-min Rain = 0
KBO2 051005Z 32006KT 07/03 A2995 RMK A01 T00660033  RH  080%=      5-min Rain = 0
KBO2 051006Z 32006KT 07/03 A2995 RMK A01 T00660033  RH  079%=      5-min Rain = 0
KBO2 051007Z 32008KT 07/03 A2995 RMK A01 T00660033  RH  080%=      5-min Rain = 0
KBO2 051008Z 33008KT 07/03 A2995 RMK A01 T00660034  RH  080%=      5-min Rain = 0
KBO2 051009Z 33007KT 07/03 A2995 RMK A01 T00660034  RH  080%=      5-min Rain = 0
KBO2 051010Z 32005KT 07/03 A2995 RMK A01 T00660034  RH  080%=      5-min Rain = 0
KBO2 051011Z 33006KT 07/03 A2995 RMK A01 T00650033  RH  080%=      5-min Rain = 0
KBO2 051012Z 32006KT 07/03 A2995 RMK A01 T00650033  RH  080%=      5-min Rain = 0
KBO2 051013Z 32008KT 07/03 A2995 RMK A01 T00650034  RH  081%=      5-min Rain = 0
KBO2 051014Z 33008KT 06/03 A2995 RMK A01 T00640033  RH  081%=      5-min Rain = 0
KBO2 051015Z 32009KT 06/03 A2995 RMK A01 T00640034  RH  081%=      5-min Rain = 0
KBO2 051016Z 32010KT 06/04 A2995 RMK A01 T00640035  RH  081%=      5-min Rain = 0
KBO2 051017Z 31010KT 06/04 A2995 RMK A01 T00640035  RH  081%=      5-min Rain = 0
KBO2 051018Z 32011KT 06/04 A2994 RMK A01 T00640035  RH  081%=      5-min Rain = 0
KBO2 051019Z 32011KT 06/04 A2995 RMK A01 T00640035  RH  081%=      5-min Rain = 0
KBO2 051020Z 32011KT 06/03 A2995 RMK A01 T00640034  RH  081%=      5-min Rain = 0
KBO2 051021Z 32010KT 06/03 A2995 RMK A01 T00630034  RH  082%=      5-min Rain = 0
KBO2 051022Z 32010KT 06/03 A2995 RMK A01 T00630034  RH  082%=      5-min Rain = 0
KBO2 051023Z 32011KT 06/04 A2995 RMK A01 T00630035  RH  082%=      5-min Rain = 0
KBO2 051024Z 32010KT 06/04 A2995 RMK A01 T00630035  RH  083%=      5-min Rain = 0
KBO2 051025Z 32010KT 06/04 A2995 RMK A01 T00630036  RH  083%=      5-min Rain = 0
KBO2 051026Z 32009KT 06/04 A2995 RMK A01 T00640037  RH  083%=      5-min Rain = 0
KBO2 051027Z 32009KT 06/04 A2995 RMK A01 T00640037  RH  083%=      5-min Rain = 0
KBO2 051028Z 31009KT 06/04 A2995 RMK A01 T00640036  RH  083%=      5-min Rain = 0
KBO2 051029Z 32008KT 06/04 A2995 RMK A01 T00640036  RH  083%=      5-min Rain = 0
KBO2 051030Z 32008KT 06/04 A2996 RMK A01 T00640036  RH  083%=      5-min Rain = 0
KBO2 051031Z 32009KT 06/04 A2996 RMK A01 T00640036  RH  083%=      5-min Rain = 0
KBO2 051032Z 33010KT 06/04 A2995 RMK A01 T00640037  RH  083%=      5-min Rain = 0
KBO2 051033Z 32009KT 06/04 A2995 RMK A01 T00640038  RH  083%=      5-min Rain = 0
KBO2 051034Z 32009KT 06/04 A2995 RMK A01 T00640038  RH  083%=      5-min Rain = 0
KBO2 051035Z 32011KT 06/04 A2995 RMK A01 T00640038  RH  083%=      5-min Rain = 0
KBO2 051036Z 32011KT 06/04 A2995 RMK A01 T00640038  RH  083%=      5-min Rain = 0
KBO2 051037Z 32011KT 06/04 A2995 RMK A01 T00640038  RH  084%=      5-min Rain = 0
KBO2 051038Z 33009KT 06/04 A2995 RMK A01 T00640038  RH  084%=      5-min Rain = 0
KBO2 051039Z 33010KT 06/04 A2995 RMK A01 T00640038  RH  084%=      5-min Rain = 0
KBO2 051040Z 33009KT 06/04 A2996 RMK A01 T00630038  RH  084%=      5-min Rain = 0
KBO2 051041Z 33010KT 06/04 A2996 RMK A01 T00630038  RH  084%=      5-min Rain = 0
KBO2 051042Z 33010KT 06/04 A2996 RMK A01 T00630038  RH  084%=      5-min Rain = 0
KBO2 051043Z 32009KT 06/04 A2996 RMK A01 T00630038  RH  084%=      5-min Rain = 0
KBO2 051044Z 33009KT 06/04 A2996 RMK A01 T00620038  RH  084%=      5-min Rain = 0
KBO2 051045Z 33010KT 06/04 A2996 RMK A01 T00630038  RH  084%=      5-min Rain = 0
KBO2 051046Z 32009KT 06/04 A2996 RMK A01 T00630038  RH  085%=      5-min Rain = 0
KBO2 051047Z 33009KT 06/04 A2996 RMK A01 T00630038  RH  085%=      5-min Rain = 0
KBO2 051048Z 33009KT 06/04 A2996 RMK A01 T00620038  RH  085%=      5-min Rain = 0
KBO2 051049Z 33009KT 06/04 A2997 RMK A01 T00620038  RH  085%=      5-min Rain = 0
KBO2 051050Z 33010KT 06/04 A2997 RMK A01 T00620039  RH  085%=      5-min Rain = 0
KBO2 051051Z 33009KT 06/04 A2997 RMK A01 T00620039  RH  085%=      5-min Rain = 0
KBO2 051052Z 33010KT 06/04 A2997 RMK A01 T00620038  RH  085%=      5-min Rain = 0
KBO2 051053Z 33009KT 06/04 A2997 RMK A01 T00620038  RH  085%=      5-min Rain = 0
KBO2 051054Z 34011KT 06/04 A2997 RMK A01 T00620038  RH  085%=      5-min Rain = 0
KBO2 051055Z 34009KT 06/04 A2997 RMK A01 T00620038  RH  085%=      5-min Rain = 0
KBO2 051056Z 34010KT 06/04 A2997 RMK A01 T00620038  RH  085%=      5-min Rain = 0
KBO2 051057Z 34009KT 06/04 A2997 RMK A01 T00610038  RH  085%=      5-min Rain = 0
KBO2 051058Z 34009KT 06/04 A2998 RMK A01 T00610038  RH  085%=      5-min Rain = 0
KBO2 051059Z 35009KT 06/04 A2998 RMK A01 T00610038  RH  085%=      5-min Rain = 0
KBO2 051100Z 34010KT 06/04 A2998 RMK A01 T00610038  RH  085%=      5-min Rain = 0
KBO2 051101Z 35008KT 06/04 A2998 RMK A01 T00610038  RH  085%=      5-min Rain = 0
KBO2 051102Z 35008KT 06/04 A2998 RMK A01 T00610038  RH  085%=      5-min Rain = 0
KBO2 051103Z 35009KT 06/04 A2998 RMK A01 T00610038  RH  085%=      5-min Rain = 0
KBO2 051104Z 34011KT 06/04 A2998 RMK A01 T00600038  RH  086%=      5-min Rain = 0
KBO2 051105Z 34011KT 06/04 A2998 RMK A01 T00600038  RH  086%=      5-min Rain = 0
KBO2 051106Z 34011KT 06/04 A2998 RMK A01 T00590037  RH  086%=      5-min Rain = 0
KBO2 051107Z 34009KT 06/04 A2999 RMK A01 T00590037  RH  086%=      5-min Rain = 0
KBO2 051108Z 35010KT 06/04 A2999 RMK A01 T00580037  RH  086%=      5-min Rain = 0
KBO2 051109Z 34012KT 06/04 A2998 RMK A01 T00580037  RH  086%=      5-min Rain = 0
KBO2 051110Z 34010KT 06/04 A2999 RMK A01 T00580037  RH  087%=      5-min Rain = 0
KBO2 051111Z 35009KT 06/04 A2999 RMK A01 T00570037  RH  087%=      5-min Rain = 0
KBO2 051112Z 35010KT 06/04 A2999 RMK A01 T00570037  RH  087%=      5-min Rain = 0
KBO2 051113Z 35010KT 06/04 A2999 RMK A01 T00570037  RH  087%=      5-min Rain = 0
KBO2 051114Z 35009KT 06/04 A2999 RMK A01 T00570037  RH  087%=      5-min Rain = 0
KBO2 051115Z 35010KT 06/04 A2999 RMK A01 T00570037  RH  087%=      5-min Rain = 0
KBO2 051116Z 34008KT 06/04 A2999 RMK A01 T00570037  RH  087%=      5-min Rain = 0
KBO2 051117Z 34009KT 06/04 A2999 RMK A01 T00560036  RH  087%=      5-min Rain = 0
KBO2 051118Z 34010KT 06/04 A2999 RMK A01 T00560036  RH  087%=      5-min Rain = 0
KBO2 051119Z 35012KT 06/04 A2999 RMK A01 T00550035  RH  087%=      5-min Rain = 0
KBO2 051120Z 35012KT 05/04 A30 RMK A01 T00540035  RH  087%=      5-min Rain = 0
KBO2 051121Z 35011KT 05/04 A30 RMK A01 T00540035  RH  088%=      5-min Rain = 0
KBO2 051122Z 35011KT 05/04 A30 RMK A01 T00540035  RH  088%=      5-min Rain = 0
KBO2 051123Z 35012KT 05/04 A30 RMK A01 T00540035  RH  088%=      5-min Rain = 0
KBO2 051124Z 35011KT 05/04 A30 RMK A01 T00530035  RH  088%=      5-min Rain = 0
KBO2 051125Z 36012KT 05/03 A30 RMK A01 T00530034  RH  088%=      5-min Rain = 0
KBO2 051126Z 36010KT 05/03 A30 RMK A01 T00520034  RH  088%=      5-min Rain = 0
KBO2 051127Z 00010KT 05/03 A30 RMK A01 T00520033  RH  088%=      5-min Rain = 0
KBO2 051128Z 36010KT 05/03 A30 RMK A01 T00510033  RH  088%=      5-min Rain = 0
KBO2 051129Z 36010KT 05/03 A30 RMK A01 T00500033  RH  088%=      5-min Rain = 0
KBO2 051130Z 35008KT 05/03 A30 RMK A01 T00500032  RH  089%=      5-min Rain = 0
KBO2 051131Z 35009KT 05/03 A30 RMK A01 T00490031  RH  088%=      5-min Rain = 0
KBO2 051132Z 35011KT 05/03 A30 RMK A01 T00480032  RH  089%=      5-min Rain = 0
KBO2 051133Z 36011KT 05/03 A30 RMK A01 T00480032  RH  089%=      5-min Rain = 0
KBO2 051134Z 36010KT 05/03 A30 RMK A01 T00480033  RH  090%=      5-min Rain = 0
KBO2 051135Z 36009KT 05/03 A3001 RMK A01 T00480033  RH  090%=      5-min Rain = 0
KBO2 051136Z 35010KT 05/03 A3001 RMK A01 T00480032  RH  089%=      5-min Rain = 0
KBO2 051137Z 35009KT 05/03 A3001 RMK A01 T00480032  RH  089%=      5-min Rain = 0
KBO2 051138Z 36011KT 05/03 A3001 RMK A01 T00480032  RH  089%=      5-min Rain = 0
KBO2 051139Z 35011KT 05/03 A3001 RMK A01 T00470031  RH  089%=      5-min Rain = 0
KBO2 051140Z 35010KT 05/03 A3001 RMK A01 T00470031  RH  089%=      5-min Rain = 0
KBO2 051141Z 36009KT 05/03 A3001 RMK A01 T00470031  RH  090%=      5-min Rain = 0
KBO2 051142Z 36010KT 05/03 A3001 RMK A01 T00460031  RH  090%=      5-min Rain = 0
KBO2 051143Z 36009KT 05/03 A3002 RMK A01 T00460031  RH  090%=      5-min Rain = 0
KBO2 051144Z 00010KT 05/03 A3002 RMK A01 T00460030  RH  090%=      5-min Rain = 0
KBO2 051145Z 36010KT 05/03 A3002 RMK A01 T00460030  RH  090%=      5-min Rain = 0
KBO2 051146Z 36010KT 05/03 A3002 RMK A01 T00460030  RH  090%=      5-min Rain = 0
KBO2 051147Z 00011KT 05/03 A3002 RMK A01 T00450030  RH  090%=      5-min Rain = 0
KBO2 051148Z 00010KT 05/03 A3002 RMK A01 T00450029  RH  090%=      5-min Rain = 0
KBO2 051149Z 00013KT 04/03 A3002 RMK A01 T00440029  RH  090%=      5-min Rain = 0
KBO2 051150Z 36011KT 04/03 A3003 RMK A01 T00440029  RH  090%=      5-min Rain = 0
KBO2 051151Z 01012KT 04/03 A3003 RMK A01 T00440028  RH  090%=      5-min Rain = 0
KBO2 051152Z 01012KT 04/03 A3003 RMK A01 T00430028  RH  090%=      5-min Rain = 0
KBO2 051153Z 01012KT 04/03 A3003 RMK A01 T00430028  RH  090%=      5-min Rain = 0
KBO2 051154Z 01013KT 04/03 A3003 RMK A01 T00420027  RH  090%=      5-min Rain = 0
KBO2 051155Z 01016KT 04/03 A3003 RMK A01 T00420027  RH  090%=      5-min Rain = 0
KBO2 051156Z 01015KT 04/03 A3004 RMK A01 T00410026  RH  090%=      5-min Rain = 0
KBO2 051157Z 01016KT 04/03 A3004 RMK A01 T00410025  RH  090%=      5-min Rain = 0
KBO2 051158Z 01014KT 04/03 A3004 RMK A01 T00400025  RH  090%=      5-min Rain = 0
KBO2 051159Z 00011KT 04/03 A3004 RMK A01 T00400025  RH  090%=      5-min Rain = 0
KBO2 051200Z 01012KT 04/03 A3004 RMK A01 T00390025  RH  090%=      5-min Rain = 0
KBO2 051201Z 01012KT 04/02 A3004 RMK A01 T00390024  RH  090%=      5-min Rain = 0
KBO2 051202Z 01012KT 04/02 A3004 RMK A01 T00380024  RH  090%=      5-min Rain = 0
KBO2 051203Z 01011KT 04/02 A3004 RMK A01 T00380023  RH  090%=      5-min Rain = 0
KBO2 051204Z 01012KT 04/02 A3004 RMK A01 T00370023  RH  090%=      5-min Rain = 0
KBO2 051205Z 01012KT 04/02 A3004 RMK A01 T00370023  RH  090%=      5-min Rain = 0
KBO2 051206Z 01012KT 04/02 A3004 RMK A01 T00360022  RH  091%=      5-min Rain = 0
KBO2 051207Z 01012G17KT 04/02 A3004 RMK A01 T00360022  RH  091%=      5-min Rain = 0
KBO2 051208Z 00011KT 04/02 A3004 RMK A01 T00360022  RH  091%=      5-min Rain = 0
KBO2 051209Z 01012KT 04/02 A3005 RMK A01 T00360022  RH  091%=      5-min Rain = 0
KBO2 051210Z 01012KT 04/02 A3005 RMK A01 T00360022  RH  091%=      5-min Rain = 0
KBO2 051211Z 01013KT 04/02 A3005 RMK A01 T00360022  RH  091%=      5-min Rain = 0
KBO2 051212Z 01011KT 04/02 A3005 RMK A01 T00360022  RH  091%=      5-min Rain = 0
KBO2 051213Z 01013KT 04/02 A3005 RMK A01 T00360022  RH  091%=      5-min Rain = 0
KBO2 051214Z 01012KT 04/02 A3005 RMK A01 T00360022  RH  091%=      5-min Rain = 0
KBO2 051215Z 01010KT 04/02 A3005 RMK A01 T00360021  RH  091%=      5-min Rain = 0
KBO2 051216Z 02013KT 04/02 A3005 RMK A01 T00360022  RH  090%=      5-min Rain = 0
KBO2 051217Z 02014KT 04/02 A3005 RMK A01 T00360022  RH  090%=      5-min Rain = 0
KBO2 051218Z 02010KT 04/02 A3005 RMK A01 T00370022  RH  090%=      5-min Rain = 0
KBO2 051219Z 02011KT 04/02 A3005 RMK A01 T00370021  RH  089%=      5-min Rain = 0
KBO2 051220Z 02011KT 04/02 A3005 RMK A01 T00380021  RH  089%=      5-min Rain = 0
KBO2 051221Z 02010KT 04/02 A3005 RMK A01 T00380021  RH  089%=      5-min Rain = 0
KBO2 051222Z 02010KT 04/02 A3005 RMK A01 T00380021  RH  089%=      5-min Rain = 0
KBO2 051223Z 02009KT 04/02 A3005 RMK A01 T00390021  RH  088%=      5-min Rain = 0
KBO2 051224Z 02010KT 04/02 A3005 RMK A01 T00390021  RH  088%=      5-min Rain = 0
KBO2 051225Z 03011KT 04/02 A3005 RMK A01 T00390021  RH  088%=      5-min Rain = 0
KBO2 051226Z 03010KT 04/02 A3005 RMK A01 T00400021  RH  088%=      5-min Rain = 0
KBO2 051227Z 03012KT 04/02 A3006 RMK A01 T00410021  RH  087%=      5-min Rain = 0
KBO2 051228Z 03011KT 04/02 A3006 RMK A01 T00410021  RH  087%=      5-min Rain = 0
KBO2 051229Z 03011KT 04/02 A3006 RMK A01 T00410021  RH  087%=      5-min Rain = 0
KBO2 051230Z 03013KT 04/02 A3006 RMK A01 T00420021  RH  087%=      5-min Rain = 0
KBO2 051231Z 03011KT 04/02 A3006 RMK A01 T00420021  RH  086%=      5-min Rain = 0
KBO2 051232Z 03011KT 04/02 A3006 RMK A01 T00420021  RH  086%=      5-min Rain = 0
KBO2 051233Z 02012KT 04/02 A3006 RMK A01 T00420021  RH  086%=      5-min Rain = 0
KBO2 051234Z 02010KT 04/02 A3006 RMK A01 T00430021  RH  086%=      5-min Rain = 0
KBO2 051235Z 02011KT 04/02 A3006 RMK A01 T00430021  RH  086%=      5-min Rain = 0
KBO2 051236Z 02011KT 04/02 A3007 RMK A01 T00430021  RH  086%=      5-min Rain = 0
KBO2 051237Z 02011KT 04/02 A3007 RMK A01 T00440021  RH  085%=      5-min Rain = 0
KBO2 051238Z 02011KT 04/02 A3007 RMK A01 T00440021  RH  085%=      5-min Rain = 0
KBO2 051239Z 02011KT 04/02 A3007 RMK A01 T00440021  RH  085%=      5-min Rain = 0
KBO2 051240Z 02011KT 04/02 A3007 RMK A01 T00440021  RH  085%=      5-min Rain = 0
KBO2 051241Z 02011KT 04/02 A3007 RMK A01 T00440021  RH  085%=      5-min Rain = 0
KBO2 051242Z 02011KT 05/02 A3007 RMK A01 T00450021  RH  084%=      5-min Rain = 0
KBO2 051243Z 02011KT 05/02 A3007 RMK A01 T00450020  RH  084%=      5-min Rain = 0
KBO2 051244Z 02012KT 05/02 A3007 RMK A01 T00450020  RH  084%=      5-min Rain = 0
KBO2 051245Z 02010KT 05/02 A3007 RMK A01 T00450020  RH  084%=      5-min Rain = 0
KBO2 051246Z 02012KT 05/02 A3007 RMK A01 T00450020  RH  084%=      5-min Rain = 0
KBO2 051247Z 02011KT 05/02 A3007 RMK A01 T00450020  RH  084%=      5-min Rain = 0
KBO2 051248Z 02011KT 05/02 A3007 RMK A01 T00450020  RH  084%=      5-min Rain = 0
KBO2 051249Z 01011KT 05/02 A3008 RMK A01 T00450020  RH  084%=      5-min Rain = 0
KBO2 051250Z 01012KT 05/02 A3008 RMK A01 T00450020  RH  084%=      5-min Rain = 0
KBO2 051251Z 01011KT 05/02 A3008 RMK A01 T00450020  RH  084%=      5-min Rain = 0
KBO2 051252Z 01011KT 05/02 A3008 RMK A01 T00450020  RH  084%=      5-min Rain = 0
KBO2 051253Z 01009KT 05/02 A3008 RMK A01 T00450021  RH  084%=      5-min Rain = 0
KBO2 051254Z 02010KT 05/02 A3008 RMK A01 T00450021  RH  084%=      5-min Rain = 0
KBO2 051255Z 01010KT 05/02 A3008 RMK A01 T00450021  RH  084%=      5-min Rain = 0
KBO2 051256Z 01010KT 05/02 A3008 RMK A01 T00450022  RH  085%=      5-min Rain = 0
KBO2 051257Z 01010KT 05/02 A3008 RMK A01 T00460022  RH  085%=      5-min Rain = 0
KBO2 051258Z 01012KT 05/02 A3008 RMK A01 T00460023  RH  085%=      5-min Rain = 0
KBO2 051259Z 01012KT 05/02 A3008 RMK A01 T00470024  RH  085%=      5-min Rain = 0
KBO2 051300Z 01012KT 05/03 A3008 RMK A01 T00470025  RH  086%=      5-min Rain = 0
KBO2 051301Z 01010KT 05/03 A3008 RMK A01 T00480026  RH  086%=      5-min Rain = 0
KBO2 051302Z 01010KT 05/03 A3008 RMK A01 T00480027  RH  086%=      5-min Rain = 0
KBO2 051303Z 01011KT 05/03 A3009 RMK A01 T00490028  RH  086%=      5-min Rain = 0
KBO2 051304Z 01009KT 05/03 A3009 RMK A01 T00500029  RH  087%=      5-min Rain = 0
KBO2 051305Z 01011KT 05/03 A3009 RMK A01 T00500030  RH  087%=      5-min Rain = 0
KBO2 051306Z 01011KT 05/03 A3009 RMK A01 T00510031  RH  087%=      5-min Rain = 0
KBO2 051307Z 01011KT 05/03 A3009 RMK A01 T00510032  RH  087%=      5-min Rain = 0
KBO2 051308Z 00012KT 05/03 A3009 RMK A01 T00510032  RH  087%=      5-min Rain = 0
KBO2 051309Z 00012KT 05/03 A3009 RMK A01 T00520032  RH  088%=      5-min Rain = 0
KBO2 051310Z 36012KT 05/03 A3009 RMK A01 T00520033  RH  088%=      5-min Rain = 0
KBO2 051311Z 36012KT 05/03 A3009 RMK A01 T00520033  RH  088%=      5-min Rain = 0
KBO2 051312Z 35012KT 05/03 A3009 RMK A01 T00520033  RH  088%=      5-min Rain = 0
KBO2 051313Z 35012KT 05/03 A3009 RMK A01 T00520033  RH  087%=      5-min Rain = 0
KBO2 051314Z 35011KT 05/03 A3009 RMK A01 T00520033  RH  087%=      5-min Rain = 0
KBO2 051315Z 35010KT 05/03 A301 RMK A01 T00520033  RH  087%=      5-min Rain = 0
KBO2 051316Z 36011KT 05/03 A301 RMK A01 T00520033  RH  087%=      5-min Rain = 0
KBO2 051317Z 36010KT 05/03 A301 RMK A01 T00520034  RH  088%=      5-min Rain = 0
KBO2 051318Z 36010KT 05/03 A301 RMK A01 T00530034  RH  088%=      5-min Rain = 0
KBO2 051319Z 36009KT 05/03 A301 RMK A01 T00530034  RH  088%=      5-min Rain = 0
KBO2 051320Z 36012KT 05/04 A301 RMK A01 T00530036  RH  088%=      5-min Rain = 0
KBO2 051321Z 00011KT 05/04 A301 RMK A01 T00540037  RH  089%=      5-min Rain = 0
KBO2 051322Z 36011KT 05/04 A301 RMK A01 T00540038  RH  089%=      5-min Rain = 0
KBO2 051323Z 36011KT 06/04 A301 RMK A01 T00550039  RH  090%=      5-min Rain = 0
KBO2 051324Z 00010KT 06/04 A301 RMK A01 T00550040  RH  090%=      5-min Rain = 0
KBO2 051325Z 36011KT 06/04 A301 RMK A01 T00550041  RH  091%=      5-min Rain = 0
KBO2 051326Z 00010KT 06/04 A301 RMK A01 T00560043  RH  091%=      5-min Rain = 0
KBO2 051327Z 36012KT 06/05 A301 RMK A01 T00560045  RH  092%=      5-min Rain = 0
KBO2 051328Z 00011KT 06/05 A301 RMK A01 T00570047  RH  093%=      5-min Rain = 0
KBO2 051329Z 36012KT 06/05 A301 RMK A01 T00580048  RH  093%=      5-min Rain = 0
KBO2 051330Z 36012KT 06/05 A301 RMK A01 T00580049  RH  094%=      5-min Rain = 0
KBO2 051331Z 00011KT 06/05 A3011 RMK A01 T00590050  RH  094%=      5-min Rain = 0
KBO2 051332Z 00010KT 06/05 A3011 RMK A01 T00590051  RH  094%=      5-min Rain = 0
KBO2 051333Z 00011G16KT 06/05 A3011 RMK A01 T00600052  RH  095%=      5-min Rain = 0
KBO2 051334Z 00012KT 06/05 A3011 RMK A01 T00600053  RH  095%=      5-min Rain = 0
KBO2 051335Z 00011KT 06/05 A3011 RMK A01 T00610054  RH  095%=      5-min Rain = 0
KBO2 051336Z 00009KT 06/05 A3011 RMK A01 T00610054  RH  095%=      5-min Rain = 0
KBO2 051337Z 00012KT 06/05 A3011 RMK A01 T00610054  RH  095%=      5-min Rain = 0
KBO2 051338Z 01010KT 06/06 A3011 RMK A01 T00620055  RH  095%=      5-min Rain = 0
KBO2 051339Z 00011KT 06/06 A3011 RMK A01 T00620055  RH  095%=      5-min Rain = 0
KBO2 051340Z 00010KT 06/06 A3011 RMK A01 T00620055  RH  095%=      5-min Rain = 0
KBO2 051341Z 00010G15KT 06/06 A3011 RMK A01 T00630056  RH  095%=      5-min Rain = 0
KBO2 051342Z 01011KT 06/06 A3011 RMK A01 T00630056  RH  095%=      5-min Rain = 0
KBO2 051343Z 00010KT 06/06 A3011 RMK A01 T00630056  RH  096%=      5-min Rain = 0
KBO2 051344Z 00012KT 06/06 A3011 RMK A01 T00630057  RH  096%=      5-min Rain = 0
KBO2 051345Z 01013KT 06/06 A3012 RMK A01 T00630057  RH  096%=      5-min Rain = 0
KBO2 051346Z 01013G19KT 06/06 A3012 RMK A01 T00640058  RH  096%=      5-min Rain = 0
KBO2 051347Z 01013G19KT 07/06 A3012 RMK A01 T00650058  RH  096%=      5-min Rain = 0
KBO2 051348Z 01014KT 07/06 A3012 RMK A01 T00650059  RH  095%=      5-min Rain = 0
KBO2 051349Z 01013G18KT 07/06 A3012 RMK A01 T00660059  RH  095%=      5-min Rain = 0
KBO2 051350Z 01016KT 07/06 A3012 RMK A01 T00670060  RH  095%=      5-min Rain = 0
KBO2 051351Z 00015KT 07/06 A3012 RMK A01 T00670060  RH  095%=      5-min Rain = 0
KBO2 051352Z 00015G20KT 07/06 A3012 RMK A01 T00680061  RH  095%=      5-min Rain = 0
KBO2 051353Z 00015G20KT 07/06 A3012 RMK A01 T00680061  RH  095%=      5-min Rain = 0
KBO2 051354Z 01016G21KT 07/06 A3012 RMK A01 T00680061  RH  095%=      5-min Rain = 0
KBO2 051355Z 01017KT 07/06 A3013 RMK A01 T00690061  RH  095%=      5-min Rain = 0
KBO2 051356Z 01019G24KT 07/06 A3013 RMK A01 T00690062  RH  095%=      5-min Rain = 0
KBO2 051357Z 01018G25KT 07/06 A3013 RMK A01 T00700062  RH  095%=      5-min Rain = 0
KBO2 051358Z 01019G24KT 07/06 A3013 RMK A01 T00700062  RH  095%=      5-min Rain = 0
KBO2 051359Z 01018G23KT 07/06 A3013 RMK A01 T00710063  RH  095%=      5-min Rain = 0
KBO2 051400Z 01015KT 07/06 A3013 RMK A01 T00710063  RH  095%=      5-min Rain = 0
KBO2 051401Z 00013KT 07/06 A3013 RMK A01 T00710063  RH  095%=      5-min Rain = 0
KBO2 051402Z 00016KT 07/06 A3013 RMK A01 T00710063  RH  095%=      5-min Rain = 0
KBO2 051403Z 00018G24KT 07/06 A3013 RMK A01 T00710063  RH  095%=      5-min Rain = 0
KBO2 051404Z 36018KT 07/06 A3013 RMK A01 T00710063  RH  095%=      5-min Rain = 0
KBO2 051405Z 01018KT 07/06 A3013 RMK A01 T00710063  RH  095%=      5-min Rain = 0
KBO2 051406Z 00018G23KT 07/06 A3013 RMK A01 T00710063  RH  095%=      5-min Rain = 0
KBO2 051407Z 00018KT 07/06 A3014 RMK A01 T00710063  RH  095%=      5-min Rain = 0
KBO2 051408Z 00016G22KT 07/06 A3014 RMK A01 T00710063  RH  095%=      5-min Rain = 0
KBO2 051409Z 00016KT 07/06 A3014 RMK A01 T00710063  RH  094%=      5-min Rain = 0
KBO2 051410Z 36017G22KT 07/06 A3014 RMK A01 T00710063  RH  094%=      5-min Rain = 0
KBO2 051411Z 36018G23KT 07/06 A3014 RMK A01 T00710063  RH  094%=      5-min Rain = 0
KBO2 051412Z 36018G23KT 07/06 A3014 RMK A01 T00720063  RH  094%=      5-min Rain = 0
KBO2 051413Z 36020G27KT 07/06 A3014 RMK A01 T00720063  RH  094%=      5-min Rain = 0
KBO2 051414Z 36020G26KT 07/06 A3014 RMK A01 T00720062  RH  094%=      5-min Rain = 0
KBO2 051415Z 00018G23KT 07/06 A3014 RMK A01 T00720063  RH  094%=      5-min Rain = 0
KBO2 051416Z 36016G24KT 07/06 A3014 RMK A01 T00720063  RH  094%=      5-min Rain = 0
KBO2 051417Z 36018G25KT 07/06 A3014 RMK A01 T00720063  RH  094%=      5-min Rain = 0
KBO2 051418Z 36019G25KT 07/06 A3014 RMK A01 T00720063  RH  094%=      5-min Rain = 0
KBO2 051419Z 36017G22KT 07/06 A3014 RMK A01 T00720062  RH  093%=      5-min Rain = 0
KBO2 051420Z 36018G24KT 07/06 A3014 RMK A01 T00720062  RH  093%=      5-min Rain = 0
KBO2 051421Z 36017KT 07/06 A3014 RMK A01 T00720062  RH  093%=      5-min Rain = 0
KBO2 051422Z 36020KT 07/06 A3014 RMK A01 T00720062  RH  093%=      5-min Rain = 0
KBO2 051423Z 36020G27KT 07/06 A3014 RMK A01 T00720062  RH  093%=      5-min Rain = 0
KBO2 051424Z 36020KT 07/06 A3014 RMK A01 T00730063  RH  093%=      5-min Rain = 0
KBO2 051425Z 35018G25KT 07/06 A3014 RMK A01 T00730062  RH  093%=      5-min Rain = 0
KBO2 051426Z 36017G25KT 07/06 A3014 RMK A01 T00730062  RH  093%=      5-min Rain = 0
KBO2 051427Z 36019KT 07/06 A3014 RMK A01 T00730063  RH  094%=      5-min Rain = 0
KBO2 051428Z 36018G23KT 07/06 A3014 RMK A01 T00730063  RH  094%=      5-min Rain = 0
KBO2 051429Z 00017KT 07/06 A3015 RMK A01 T00730063  RH  094%=      5-min Rain = 0
KBO2 051430Z 36018G24KT 07/06 A3015 RMK A01 T00730063  RH  094%=      5-min Rain = 0
KBO2 051431Z 00020G28KT 07/06 A3015 RMK A01 T00730064  RH  094%=      5-min Rain = 0
KBO2 051432Z 36018G25KT 07/06 A3015 RMK A01 T00720063  RH  094%=      5-min Rain = 0
KBO2 051433Z 35020G25KT 07/06 A3015 RMK A01 T00720063  RH  094%=      5-min Rain = 0
KBO2 051434Z 36018KT 07/06 A3015 RMK A01 T00720064  RH  094%=      5-min Rain = 0
KBO2 051435Z 35020G25KT 07/06 A3015 RMK A01 T00720064  RH  095%=      5-min Rain = 0
KBO2 051436Z 36020G28KT 07/06 A3015 RMK A01 T00720064  RH  095%=      5-min Rain = 0
KBO2 051437Z 36022G28KT 07/06 A3015 RMK A01 T00720064  RH  095%=      5-min Rain = 0
KBO2 051438Z 35022G28KT 07/06 A3015 RMK A01 T00710064  RH  095%=      5-min Rain = 0
KBO2 051439Z 36023G29KT 07/06 A3015 RMK A01 T00710064  RH  095%=      5-min Rain = 0
KBO2 051440Z 36023G29KT 07/06 A3015 RMK A01 T00710064  RH  095%=      5-min Rain = 0
KBO2 051441Z 36020G26KT 07/07 A3016 RMK A01 T00710065  RH  096%=      5-min Rain = 0
KBO2 051442Z 36019G28KT 07/06 A3016 RMK A01 T00710064  RH  096%=      5-min Rain = 0
KBO2 051443Z 36023G29KT 07/07 A3016 RMK A01 T00710065  RH  096%=      5-min Rain = 0
KBO2 051444Z 36022G30KT 07/07 A3016 RMK A01 T00710065  RH  096%=      5-min Rain = 0
KBO2 051445Z 35025G32KT 07/06 A3016 RMK A01 T00710064  RH  096%=      5-min Rain = 0
KBO2 051446Z 36024G30KT 07/06 A3016 RMK A01 T00710064  RH  095%=      5-min Rain = 0
KBO2 051447Z 00024G32KT 07/06 A3016 RMK A01 T00710063  RH  095%=      5-min Rain = 0
KBO2 051448Z 00021G30KT 07/06 A3016 RMK A01 T00710063  RH  095%=      5-min Rain = 0
KBO2 051449Z 01020G25KT 07/06 A3017 RMK A01 T00710063  RH  094%=      5-min Rain = 0
KBO2 051450Z 01021G27KT 07/06 A3017 RMK A01 T00710063  RH  095%=      5-min Rain = 0
KBO2 051451Z 01020G27KT 07/06 A3017 RMK A01 T00710063  RH  094%=      5-min Rain = 0
KBO2 051452Z 01017KT 07/06 A3017 RMK A01 T00710063  RH  094%=      5-min Rain = 0
KBO2 051453Z 01016G22KT 07/06 A3017 RMK A01 T00710063  RH  095%=      5-min Rain = 0
KBO2 051454Z 01021G28KT 07/06 A3017 RMK A01 T00710063  RH  095%=      5-min Rain = 0
KBO2 051455Z 01019KT 07/06 A3017 RMK A01 T00710063  RH  095%=      5-min Rain = 0
KBO2 051456Z 02020G26KT 07/06 A3017 RMK A01 T00710062  RH  094%=      5-min Rain = 0
KBO2 051457Z 01021KT 07/06 A3017 RMK A01 T00710061  RH  094%=      5-min Rain = 0
KBO2 051458Z 01020G26KT 07/06 A3017 RMK A01 T00710060  RH  093%=      5-min Rain = 0
KBO2 051459Z 01019G27KT 07/06 A3017 RMK A01 T00710060  RH  093%=      5-min Rain = 0
KBO2 051500Z 01015G20KT 07/06 A3017 RMK A01 T00710060  RH  093%=      5-min Rain = 0
KBO2 051501Z 02020G27KT 07/06 A3018 RMK A01 T00710060  RH  093%=      5-min Rain = 0
KBO2 051502Z 01022G29KT 07/06 A3018 RMK A01 T00710060  RH  093%=      5-min Rain = 0
KBO2 051503Z 01021G29KT 07/06 A3018 RMK A01 T00700058  RH  092%=      5-min Rain = 0
KBO2 051504Z 01022G29KT 07/06 A3018 RMK A01 T00700058  RH  092%=      5-min Rain = 0
KBO2 051505Z 02020G27KT 07/06 A3018 RMK A01 T00690058  RH  093%=      5-min Rain = 0
KBO2 051506Z 02019G26KT 07/06 A3018 RMK A01 T00690059  RH  093%=      5-min Rain = 0
KBO2 051507Z 02019G29KT 07/06 A3018 RMK A01 T00690059  RH  093%=      5-min Rain = 0
KBO2 051508Z 01021G26KT 07/06 A3018 RMK A01 T00690059  RH  093%=      5-min Rain = 0
KBO2 051509Z 01018G24KT 07/06 A3018 RMK A01 T00690059  RH  093%=      5-min Rain = 0
KBO2 051510Z 02018G24KT 07/06 A3018 RMK A01 T00700059  RH  093%=      5-min Rain = 0
KBO2 051511Z 02017G23KT 07/06 A3018 RMK A01 T00700060  RH  093%=      5-min Rain = 0
KBO2 051512Z 01016G21KT 07/06 A3018 RMK A01 T00710061  RH  094%=      5-min Rain = 0
KBO2 051513Z 02016KT 07/06 A3018 RMK A01 T00710062  RH  094%=      5-min Rain = 0
KBO2 051514Z 02014KT 07/06 A3019 RMK A01 T00710062  RH  094%=      5-min Rain = 0
KBO2 051515Z 02015KT 07/06 A3019 RMK A01 T00720062  RH  094%=      5-min Rain = 0
KBO2 051516Z 02013G18KT 07/06 A3019 RMK A01 T00720062  RH  094%=      5-min Rain = 0
KBO2 051517Z 02011KT 07/06 A3019 RMK A01 T00720063  RH  094%=      5-min Rain = 0
KBO2 051518Z 02013KT 07/06 A3019 RMK A01 T00720064  RH  094%=      5-min Rain = 0
KBO2 051519Z 02013KT 07/06 A3019 RMK A01 T00720063  RH  094%=      5-min Rain = 0
KBO2 051520Z 01013KT 07/06 A3019 RMK A01 T00710062  RH  094%=      5-min Rain = 0
KBO2 051521Z 01014KT 07/06 A3019 RMK A01 T00710062  RH  094%=      5-min Rain = 0
KBO2 051522Z 01013G18KT 07/06 A3019 RMK A01 T00710062  RH  094%=      5-min Rain = 0
KBO2 051523Z 01014G19KT 07/06 A3019 RMK A01 T00710062  RH  094%=      5-min Rain = 0
KBO2 051524Z 01016KT 07/06 A3019 RMK A01 T00710061  RH  094%=      5-min Rain = 0
KBO2 051525Z 01015KT 07/06 A3019 RMK A01 T00710060  RH  093%=      5-min Rain = 0
KBO2 051526Z 02017G23KT 07/06 A3019 RMK A01 T00700059  RH  093%=      5-min Rain = 0
KBO2 051527Z 02017KT 07/06 A3019 RMK A01 T00700058  RH  092%=      5-min Rain = 0
KBO2 051528Z 01015G20KT 07/06 A3019 RMK A01 T00700058  RH  092%=      5-min Rain = 0
KBO2 051529Z 02019G24KT 07/06 A302 RMK A01 T00710058  RH  092%=      5-min Rain = 0
KBO2 051530Z 01016G21KT 07/06 A3019 RMK A01 T00710058  RH  091%=      5-min Rain = 0
KBO2 051531Z 02018G23KT 07/06 A302 RMK A01 T00720058  RH  091%=      5-min Rain = 0
KBO2 051532Z 01018KT 07/06 A302 RMK A01 T00720058  RH  091%=      5-min Rain = 0
KBO2 051533Z 02017G22KT 07/06 A302 RMK A01 T00720057  RH  090%=      5-min Rain = 0
KBO2 051534Z 02014KT 07/06 A302 RMK A01 T00730058  RH  091%=      5-min Rain = 0
KBO2 051535Z 02016KT 07/06 A302 RMK A01 T00740061  RH  092%=      5-min Rain = 0
KBO2 051536Z 02014G19KT 07/06 A302 RMK A01 T00740061  RH  091%=      5-min Rain = 0
KBO2 051537Z 02016KT 08/06 A302 RMK A01 T00750061  RH  090%=      5-min Rain = 0
KBO2 051538Z 02014KT 08/06 A302 RMK A01 T00760062  RH  090%=      5-min Rain = 0
KBO2 051539Z 02017KT 08/06 A302 RMK A01 T00780063  RH  090%=      5-min Rain = 0
KBO2 051540Z 02018KT 08/06 A302 RMK A01 T00780059  RH  088%=      5-min Rain = 0
KBO2 051541Z 03017KT 08/06 A302 RMK A01 T00780061  RH  089%=      5-min Rain = 0
KBO2 051542Z 02018KT 08/06 A302 RMK A01 T00780059  RH  088%=      5-min Rain = 0
KBO2 051543Z 02018KT 08/06 A302 RMK A01 T00780057  RH  086%=      5-min Rain = 0
KBO2 051544Z 02018G24KT 08/06 A3021 RMK A01 T00780059  RH  088%=      5-min Rain = 0
KBO2 051545Z 03022G27KT 08/06 A3021 RMK A01 T00780057  RH  086%=      5-min Rain = 0
KBO2 051546Z 03020G26KT 08/05 A3021 RMK A01 T00780051  RH  083%=      5-min Rain = 0
KBO2 051547Z 03017G24KT 08/05 A3021 RMK A01 T00770054  RH  085%=      5-min Rain = 0
KBO2 051548Z 03019KT 08/05 A3021 RMK A01 T00770054  RH  085%=      5-min Rain = 0
KBO2 051549Z 04021G28KT 08/05 A3021 RMK A01 T00760053  RH  085%=      5-min Rain = 0
KBO2 051550Z 03025G33KT 08/05 A3021 RMK A01 T00760051  RH  084%=      5-min Rain = 0
KBO2 051551Z 03027G33KT 08/05 A3022 RMK A01 T00750048  RH  083%=      5-min Rain = 0
KBO2 051552Z 03024G30KT 07/05 A3021 RMK A01 T00730046  RH  083%=      5-min Rain = 0
KBO2 051553Z 03023G28KT 07/05 A3022 RMK A01 T00730047  RH  084%=      5-min Rain = 0
KBO2 051554Z 04020G26KT 07/05 A3022 RMK A01 T00720049  RH  085%=      5-min Rain = 0
KBO2 051555Z 03020G26KT 07/05 A3022 RMK A01 T00720051  RH  086%=      5-min Rain = 0
KBO2 051556Z 03022G29KT 07/05 A3022 RMK A01 T00730050  RH  086%=      5-min Rain = 0
KBO2 051557Z 03019G24KT 07/05 A3022 RMK A01 T00740051  RH  085%=      5-min Rain = 0
KBO2 051558Z 03018G23KT 08/05 A3022 RMK A01 T00750052  RH  086%=      5-min Rain = 0
KBO2 051559Z 03019G25KT 08/05 A3022 RMK A01 T00750052  RH  085%=      5-min Rain = 0
KBO2 051600Z 02020G26KT 08/05 A3022 RMK A01 T00750051  RH  085%=      5-min Rain = 0
KBO2 051601Z 03023G29KT 08/05 A3022 RMK A01 T00750050  RH  084%=      5-min Rain = 0
KBO2 051602Z 03022G29KT 08/05 A3022 RMK A01 T00750049  RH  084%=      5-min Rain = 0
KBO2 051603Z 03020G27KT 08/05 A3022 RMK A01 T00750050  RH  084%=      5-min Rain = 0
KBO2 051604Z 03019G26KT 08/05 A3022 RMK A01 T00750051  RH  085%=      5-min Rain = 0
KBO2 051605Z 03023G28KT 08/05 A3022 RMK A01 T00750051  RH  085%=      5-min Rain = 0
KBO2 051606Z 03020G26KT 08/05 A3022 RMK A01 T00750050  RH  084%=      5-min Rain = 0
KBO2 051607Z 03020G26KT 08/05 A3022 RMK A01 T00750052  RH  085%=      5-min Rain = 0
KBO2 051608Z 03020G27KT 08/05 A3022 RMK A01 T00750050  RH  084%=      5-min Rain = 0
KBO2 051609Z 03020G25KT 08/05 A3022 RMK A01 T00750050  RH  085%=      5-min Rain = 0
KBO2 051610Z 03016G21KT 08/05 A3022 RMK A01 T00750052  RH  085%=      5-min Rain = 0
KBO2 051611Z 03022G32KT 08/05 A3023 RMK A01 T00750051  RH  085%=      5-min Rain = 0
KBO2 051612Z 03023G29KT 07/05 A3023 RMK A01 T00740048  RH  084%=      5-min Rain = 0
KBO2 051613Z 03023G28KT 07/05 A3023 RMK A01 T00740048  RH  084%=      5-min Rain = 0
KBO2 051614Z 03021G27KT 07/05 A3023 RMK A01 T00730049  RH  084%=      5-min Rain = 0
KBO2 051615Z 03018G26KT 07/05 A3023 RMK A01 T00730050  RH  085%=      5-min Rain = 0
KBO2 051616Z 03019G24KT 07/05 A3023 RMK A01 T00730051  RH  086%=      5-min Rain = 0
KBO2 051617Z 03020G25KT 07/05 A3023 RMK A01 T00740052  RH  086%=      5-min Rain = 0
KBO2 051618Z 03019G24KT 08/05 A3023 RMK A01 T00750052  RH  086%=      5-min Rain = 0
KBO2 051619Z 03020G25KT 08/05 A3023 RMK A01 T00760053  RH  086%=      5-min Rain = 0
KBO2 051620Z 02019G24KT 08/05 A3022 RMK A01 T00760052  RH  085%=      5-min Rain = 0
KBO2 051621Z 03017KT 08/06 A3022 RMK A01 T00770055  RH  086%=      5-min Rain = 0
KBO2 051622Z 02017KT 08/06 A3022 RMK A01 T00780055  RH  085%=      5-min Rain = 0
KBO2 051623Z 03019G26KT 08/05 A3023 RMK A01 T00780053  RH  084%=      5-min Rain = 0
KBO2 051624Z 03020KT 08/05 A3023 RMK A01 T00770050  RH  083%=      5-min Rain = 0
KBO2 051625Z 02018KT 08/05 A3023 RMK A01 T00760051  RH  084%=      5-min Rain = 0
KBO2 051626Z 02017KT 08/05 A3023 RMK A01 T00760052  RH  085%=      5-min Rain = 0
KBO2 051627Z 02018KT 08/05 A3023 RMK A01 T00760053  RH  085%=      5-min Rain = 0
KBO2 051628Z 03015KT 08/05 A3023 RMK A01 T00760052  RH  085%=      5-min Rain = 0
KBO2 051629Z 02018G24KT 08/05 A3023 RMK A01 T00760053  RH  086%=      5-min Rain = 0
KBO2 051630Z 02016KT 08/05 A3023 RMK A01 T00750052  RH  085%=      5-min Rain = 0
KBO2 051631Z 03015G20KT 08/05 A3023 RMK A01 T00750051  RH  085%=      5-min Rain = 0
KBO2 051632Z 03018KT 08/05 A3023 RMK A01 T00750051  RH  085%=      5-min Rain = 0
KBO2 051633Z 03018KT 07/05 A3023 RMK A01 T00740051  RH  085%=      5-min Rain = 0
KBO2 051634Z 03017G22KT 07/05 A3023 RMK A01 T00740050  RH  085%=      5-min Rain = 0
KBO2 051635Z 03016KT 07/05 A3023 RMK A01 T00730051  RH  086%=      5-min Rain = 0
KBO2 051636Z 03016KT 07/05 A3023 RMK A01 T00730051  RH  086%=      5-min Rain = 0
KBO2 051637Z 03014KT 07/05 A3023 RMK A01 T00730051  RH  086%=      5-min Rain = 0
KBO2 051638Z 03015G22KT 07/05 A3023 RMK A01 T00730052  RH  086%=      5-min Rain = 0
KBO2 051639Z 03018KT 07/05 A3023 RMK A01 T00740052  RH  086%=      5-min Rain = 0
KBO2 051640Z 03017G22KT 08/05 A3023 RMK A01 T00750051  RH  085%=      5-min Rain = 0
KBO2 051641Z 03020KT 08/05 A3023 RMK A01 T00760051  RH  085%=      5-min Rain = 0
KBO2 051642Z 02015G21KT 08/05 A3023 RMK A01 T00760051  RH  084%=      5-min Rain = 0
KBO2 051643Z 03019G24KT 08/05 A3023 RMK A01 T00770052  RH  084%=      5-min Rain = 0
KBO2 051644Z 02018KT 08/05 A3023 RMK A01 T00770052  RH  084%=      5-min Rain = 0
KBO2 051645Z 02014G20KT 08/05 A3023 RMK A01 T00780052  RH  084%=      5-min Rain = 0
KBO2 051646Z 02014G21KT 08/05 A3023 RMK A01 T00780054  RH  085%=      5-min Rain = 0
KBO2 051647Z 02013KT 08/05 A3023 RMK A01 T00780054  RH  084%=      5-min Rain = 0
KBO2 051648Z 02015G21KT 08/05 A3024 RMK A01 T00790054  RH  084%=      5-min Rain = 0
KBO2 051649Z 02018KT 08/05 A3024 RMK A01 T00790054  RH  084%=      5-min Rain = 0
KBO2 051650Z 02016G24KT 08/05 A3024 RMK A01 T00790053  RH  084%=      5-min Rain = 0
KBO2 051651Z 02019G24KT 08/05 A3024 RMK A01 T00790053  RH  084%=      5-min Rain = 0
KBO2 051652Z 02018KT 08/05 A3024 RMK A01 T00790052  RH  083%=      5-min Rain = 0
KBO2 051653Z 02015KT 08/05 A3024 RMK A01 T00790052  RH  083%=      5-min Rain = 0
KBO2 051654Z 02019G25KT 08/06 A3024 RMK A01 T00800055  RH  084%=      5-min Rain = 0
KBO2 051655Z 02019G24KT 08/05 A3024 RMK A01 T00810053  RH  083%=      5-min Rain = 0
KBO2 051656Z 02021G26KT 08/05 A3024 RMK A01 T00810053  RH  083%=      5-min Rain = 0
KBO2 051657Z 02019KT 08/05 A3024 RMK A01 T00810053  RH  083%=      5-min Rain = 0
KBO2 051658Z 02018G23KT 08/05 A3024 RMK A01 T00810053  RH  083%=      5-min Rain = 0
KBO2 051659Z 02018KT 08/05 A3024 RMK A01 T00810053  RH  082%=      5-min Rain = 0
KBO2 051700Z 02020G25KT 08/05 A3024 RMK A01 T00810053  RH  082%=      5-min Rain = 0
KBO2 051701Z 02018KT 08/05 A3024 RMK A01 T00810052  RH  082%=      5-min Rain = 0
KBO2 051702Z 03020G27KT 08/05 A3024 RMK A01 T00810053  RH  083%=      5-min Rain = 0
KBO2 051703Z 03020G25KT 08/05 A3024 RMK A01 T00810051  RH  082%=      5-min Rain = 0
KBO2 051704Z 03018G24KT 08/05 A3024 RMK A01 T00810051  RH  082%=      5-min Rain = 0
KBO2 051705Z 02017G23KT 08/05 A3024 RMK A01 T00800052  RH  082%=      5-min Rain = 0
KBO2 051706Z 02019G24KT 08/05 A3024 RMK A01 T00800052  RH  083%=      5-min Rain = 0
KBO2 051707Z 02019KT 08/05 A3024 RMK A01 T00800052  RH  082%=      5-min Rain = 0
KBO2 051708Z 03017G22KT 08/05 A3024 RMK A01 T00800052  RH  082%=      5-min Rain = 0
KBO2 051709Z 03016G21KT 08/05 A3025 RMK A01 T00800052  RH  083%=      5-min Rain = 0
KBO2 051710Z 02014KT 08/05 A3024 RMK A01 T00800053  RH  083%=      5-min Rain = 0
KBO2 051711Z 02016G21KT 08/05 A3025 RMK A01 T00800053  RH  083%=      5-min Rain = 0
KBO2 051712Z 02018G23KT 08/05 A3025 RMK A01 T00800052  RH  083%=      5-min Rain = 0
KBO2 051713Z 02016KT 08/05 A3025 RMK A01 T00790053  RH  083%=      5-min Rain = 0
KBO2 051714Z 02017G22KT 08/05 A3025 RMK A01 T00790053  RH  083%=      5-min Rain = 0
KBO2 051715Z 02019KT 08/05 A3025 RMK A01 T00790053  RH  083%=      5-min Rain = 0
KBO2 051716Z 03016KT 08/05 A3025 RMK A01 T00790052  RH  083%=      5-min Rain = 0
KBO2 051717Z 02018G23KT 08/05 A3025 RMK A01 T00790053  RH  084%=      5-min Rain = 0
KBO2 051718Z 02017KT 08/05 A3025 RMK A01 T00790052  RH  083%=      5-min Rain = 0
KBO2 051719Z 02016G22KT 08/05 A3025 RMK A01 T00790053  RH  084%=      5-min Rain = 0
KBO2 051720Z 02017KT 08/05 A3025 RMK A01 T00790053  RH  084%=      5-min Rain = 0
KBO2 051721Z 02015G20KT 08/05 A3025 RMK A01 T00790052  RH  083%=      5-min Rain = 0
KBO2 051722Z 02014G19KT 08/05 A3025 RMK A01 T00790053  RH  084%=      5-min Rain = 0
KBO2 051723Z 02014KT 08/05 A3025 RMK A01 T00800054  RH  084%=      5-min Rain = 0
KBO2 051724Z 01017G24KT 08/06 A3025 RMK A01 T00800055  RH  084%=      5-min Rain = 0
KBO2 051725Z 02019G24KT 08/05 A3025 RMK A01 T00810053  RH  083%=      5-min Rain = 0
KBO2 051726Z 01017G23KT 08/05 A3025 RMK A01 T00810054  RH  083%=      5-min Rain = 0
KBO2 051727Z 02018G23KT 08/05 A3025 RMK A01 T00820054  RH  083%=      5-min Rain = 0
KBO2 051728Z 01016G21KT 08/05 A3025 RMK A01 T00830054  RH  082%=      5-min Rain = 0
KBO2 051729Z 02018KT 08/05 A3025 RMK A01 T00830054  RH  082%=      5-min Rain = 0
KBO2 051730Z 01015G20KT 08/05 A3025 RMK A01 T00830054  RH  082%=      5-min Rain = 0
KBO2 051731Z 01017KT 08/05 A3025 RMK A01 T00830054  RH  082%=      5-min Rain = 0
KBO2 051732Z 02013KT 08/05 A3025 RMK A01 T00830054  RH  082%=      5-min Rain = 0
KBO2 051733Z 02017KT 08/06 A3025 RMK A01 T00830055  RH  082%=      5-min Rain = 0
KBO2 051734Z 02017KT 08/05 A3025 RMK A01 T00830054  RH  082%=      5-min Rain = 0
KBO2 051735Z 02015KT 08/05 A3025 RMK A01 T00820054  RH  082%=      5-min Rain = 0
KBO2 051736Z 01014G20KT 08/05 A3025 RMK A01 T00820054  RH  083%=      5-min Rain = 0
KBO2 051737Z 01015G20KT 08/06 A3025 RMK A01 T00820055  RH  083%=      5-min Rain = 0
KBO2 051738Z 01015KT 08/05 A3025 RMK A01 T00830054  RH  082%=      5-min Rain = 0
KBO2 051739Z 01016KT 08/06 A3025 RMK A01 T00830055  RH  082%=      5-min Rain = 0
KBO2 051740Z 01018KT 08/06 A3025 RMK A01 T00830055  RH  082%=      5-min Rain = 0
KBO2 051741Z 01016G21KT 08/05 A3025 RMK A01 T00840054  RH  082%=      5-min Rain = 0
KBO2 051742Z 01016KT 08/06 A3025 RMK A01 T00840055  RH  082%=      5-min Rain = 0
KBO2 051743Z 00015G20KT 09/06 A3025 RMK A01 T00850057  RH  083%=      5-min Rain = 0
KBO2 051744Z 01017G23KT 09/06 A3025 RMK A01 T00860057  RH  082%=      5-min Rain = 0
KBO2 051745Z 01019G24KT 09/06 A3025 RMK A01 T00860055  RH  081%=      5-min Rain = 0
KBO2 051746Z 01015G20KT 09/06 A3025 RMK A01 T00860055  RH  081%=      5-min Rain = 0
KBO2 051747Z 01017G22KT 09/06 A3025 RMK A01 T00880058  RH  081%=      5-min Rain = 0
KBO2 051748Z 01018G23KT 09/06 A3025 RMK A01 T00900057  RH  080%=      5-min Rain = 0
KBO2 051749Z 01020KT 09/06 A3025 RMK A01 T00910057  RH  079%=      5-min Rain = 0
KBO2 051750Z 00016KT 09/06 A3025 RMK A01 T00930057  RH  079%=      5-min Rain = 0
KBO2 051751Z 00015KT 09/06 A3025 RMK A01 T00940058  RH  078%=      5-min Rain = 0
KBO2 051752Z 01016KT 10/06 A3025 RMK A01 T00950058  RH  077%=      5-min Rain = 0
KBO2 051753Z 01015KT 10/06 A3025 RMK A01 T00960059  RH  077%=      5-min Rain = 0
KBO2 051754Z 00015G20KT 10/06 A3025 RMK A01 T00980059  RH  077%=      5-min Rain = 0
KBO2 051755Z 01016KT 10/06 A3025 RMK A01 T00980056  RH  075%=      5-min Rain = 0
KBO2 051756Z 02019G24KT 10/05 A3025 RMK A01 T00960053  RH  075%=      5-min Rain = 0
KBO2 051757Z 01017G25KT 10/05 A3025 RMK A01 T00950052  RH  075%=      5-min Rain = 0
KBO2 051758Z 01021G26KT 09/05 A3025 RMK A01 T00940051  RH  074%=      5-min Rain = 0
KBO2 051759Z 01020G25KT 09/05 A3025 RMK A01 T00930049  RH  074%=      5-min Rain = 0
KBO2 051800Z 01019KT 09/05 A3025 RMK A01 T00920050  RH  075%=      5-min Rain = 0
KBO2 051801Z 02018G23KT 09/05 A3025 RMK A01 T00920051  RH  075%=      5-min Rain = 0
KBO2 051802Z 02021KT 09/05 A3025 RMK A01 T00920051  RH  075%=      5-min Rain = 0
KBO2 051803Z 01019G24KT 09/05 A3025 RMK A01 T00910050  RH  075%=      5-min Rain = 0
KBO2 051804Z 01020KT 09/05 A3025 RMK A01 T00910050  RH  075%=      5-min Rain = 0
KBO2 051805Z 01020KT 09/05 A3025 RMK A01 T00910050  RH  075%=      5-min Rain = 0
KBO2 051806Z 02017G22KT 09/05 A3025 RMK A01 T00900049  RH  075%=      5-min Rain = 0
KBO2 051807Z 02016G22KT 09/05 A3025 RMK A01 T00900050  RH  076%=      5-min Rain = 0
KBO2 051808Z 02015KT 09/05 A3026 RMK A01 T00900049  RH  075%=      5-min Rain = 0
KBO2 051809Z 02016KT 09/05 A3026 RMK A01 T00900050  RH  076%=      5-min Rain = 0
KBO2 051810Z 02015KT 09/05 A3025 RMK A01 T00900050  RH  076%=      5-min Rain = 0
KBO2 051811Z 01014G20KT 09/05 A3025 RMK A01 T00900050  RH  076%=      5-min Rain = 0
KBO2 051812Z 02016G21KT 09/05 A3026 RMK A01 T00910050  RH  076%=      5-min Rain = 0
KBO2 051813Z 02013KT 09/05 A3025 RMK A01 T00910051  RH  076%=      5-min Rain = 0
KBO2 051814Z 02013KT 09/05 A3025 RMK A01 T00910052  RH  076%=      5-min Rain = 0
KBO2 051815Z 03012KT 09/05 A3025 RMK A01 T00910051  RH  076%=      5-min Rain = 0
KBO2 051816Z 03015KT 09/05 A3025 RMK A01 T00910052  RH  077%=      5-min Rain = 0
KBO2 051817Z 03014KT 09/05 A3025 RMK A01 T00910052  RH  076%=      5-min Rain = 0
KBO2 051818Z 03012KT 09/05 A3025 RMK A01 T00920052  RH  076%=      5-min Rain = 0
KBO2 051819Z 02012KT 09/05 A3025 RMK A01 T00930052  RH  076%=      5-min Rain = 0
KBO2 051820Z 02013KT 09/05 A3025 RMK A01 T00940053  RH  076%=      5-min Rain = 0
KBO2 051821Z 03015KT 10/05 A3025 RMK A01 T00950052  RH  075%=      5-min Rain = 0
KBO2 051822Z 02013KT 10/05 A3025 RMK A01 T00970052  RH  074%=      5-min Rain = 0
KBO2 051823Z 03015KT 10/05 A3025 RMK A01 T00980053  RH  074%=      5-min Rain = 0
KBO2 051824Z 03013G19KT 10/05 A3025 RMK A01 T00980053  RH  073%=      5-min Rain = 0
KBO2 051825Z 03015KT 10/05 A3025 RMK A01 T00980052  RH  073%=      5-min Rain = 0
KBO2 051826Z 01014G20KT 10/05 A3025 RMK A01 T00990052  RH  073%=      5-min Rain = 0
KBO2 051827Z 02015KT 10/05 A3025 RMK A01 T01000052  RH  072%=      5-min Rain = 0
KBO2 051828Z 01017KT 10/05 A3025 RMK A01 T01010052  RH  071%=      5-min Rain = 0
KBO2 051829Z 01016G23KT 10/05 A3025 RMK A01 T01010051  RH  071%=      5-min Rain = 0
KBO2 051830Z 02016KT 10/05 A3025 RMK A01 T01020050  RH  070%=      5-min Rain = 0
KBO2 051831Z 03019G25KT 10/05 A3025 RMK A01 T01030048  RH  069%=      5-min Rain = 0
KBO2 051832Z 03022G27KT 10/04 A3025 RMK A01 T01030044  RH  067%=      5-min Rain = 0
KBO2 051833Z 03019G24KT 10/04 A3025 RMK A01 T01020044  RH  067%=      5-min Rain = 0
KBO2 051834Z 03020KT 10/04 A3025 RMK A01 T01020044  RH  067%=      5-min Rain = 0
KBO2 051835Z 03021G26KT 10/04 A3025 RMK A01 T01020044  RH  067%=      5-min Rain = 0
KBO2 051836Z 03019KT 10/04 A3025 RMK A01 T01030044  RH  067%=      5-min Rain = 0
KBO2 051837Z 03021G27KT 10/04 A3025 RMK A01 T01030044  RH  067%=      5-min Rain = 0
KBO2 051838Z 03022G28KT 10/04 A3025 RMK A01 T01030044  RH  067%=      5-min Rain = 0
KBO2 051839Z 03022KT 10/04 A3025 RMK A01 T01030044  RH  067%=      5-min Rain = 0
KBO2 051840Z 03017G25KT 10/04 A3025 RMK A01 T01030044  RH  067%=      5-min Rain = 0
KBO2 051841Z 03018KT 10/05 A3025 RMK A01 T01040045  RH  067%=      5-min Rain = 0
KBO2 051842Z 03016KT 11/05 A3025 RMK A01 T01050045  RH  067%=      5-min Rain = 0
KBO2 051843Z 02018G26KT 11/05 A3025 RMK A01 T01050047  RH  067%=      5-min Rain = 0
KBO2 051844Z 02019G24KT 11/04 A3025 RMK A01 T01050044  RH  066%=      5-min Rain = 0
KBO2 051845Z 02018G24KT 10/05 A3025 RMK A01 T01040045  RH  067%=      5-min Rain = 0
KBO2 051846Z 02016G21KT 10/05 A3025 RMK A01 T01040046  RH  067%=      5-min Rain = 0
KBO2 051847Z 02016G21KT 11/05 A3025 RMK A01 T01050047  RH  067%=      5-min Rain = 0
KBO2 051848Z 02017KT 11/05 A3025 RMK A01 T01060046  RH  066%=      5-min Rain = 0
KBO2 051849Z 02018G26KT 11/05 A3025 RMK A01 T01060046  RH  066%=      5-min Rain = 0
KBO2 051850Z 03020G25KT 11/05 A3025 RMK A01 T01050045  RH  066%=      5-min Rain = 0
KBO2 051851Z 02018G23KT 10/05 A3025 RMK A01 T01030045  RH  067%=      5-min Rain = 0
KBO2 051852Z 02019G24KT 10/05 A3025 RMK A01 T01030047  RH  068%=      5-min Rain = 0
KBO2 051853Z 02018KT 11/05 A3025 RMK A01 T01070050  RH  068%=      5-min Rain = 0
KBO2 051854Z 03018G23KT 11/05 A3025 RMK A01 T01100051  RH  067%=      5-min Rain = 0
KBO2 051855Z 03020KT 11/05 A3025 RMK A01 T01110049  RH  065%=      5-min Rain = 0
KBO2 051856Z 03016KT 11/05 A3025 RMK A01 T01100049  RH  066%=      5-min Rain = 0
KBO2 051857Z 03016G21KT 11/05 A3025 RMK A01 T01120051  RH  066%=      5-min Rain = 0
KBO2 051858Z 04018KT 11/05 A3025 RMK A01 T01110048  RH  065%=      5-min Rain = 0
KBO2 051859Z 03018G23KT 11/05 A3025 RMK A01 T01080046  RH  066%=      5-min Rain = 0
KBO2 051900Z 04019KT 11/05 A3025 RMK A01 T01060046  RH  066%=      5-min Rain = 0
KBO2 051901Z 04018KT 11/05 A3025 RMK A01 T01050046  RH  067%=      5-min Rain = 0
KBO2 051902Z 04017KT 10/05 A3025 RMK A01 T01030045  RH  067%=      5-min Rain = 0
KBO2 051903Z 04015KT 10/05 A3025 RMK A01 T01020046  RH  068%=      5-min Rain = 0
KBO2 051904Z 04016KT 10/05 A3025 RMK A01 T01020046  RH  068%=      5-min Rain = 0
KBO2 051905Z 04014KT 10/05 A3025 RMK A01 T01010046  RH  068%=      5-min Rain = 0
KBO2 051906Z 03015KT 10/05 A3025 RMK A01 T01000046  RH  069%=      5-min Rain = 0
KBO2 051907Z 03013KT 10/05 A3025 RMK A01 T01000047  RH  069%=      5-min Rain = 0
KBO2 051908Z 03012KT 10/05 A3025 RMK A01 T01000047  RH  070%=      5-min Rain = 0
KBO2 051909Z 03016KT 10/05 A3025 RMK A01 T01000047  RH  070%=      5-min Rain = 0
KBO2 051910Z 03015KT 10/05 A3025 RMK A01 T01000047  RH  070%=      5-min Rain = 0
KBO2 051911Z 03016KT 10/05 A3025 RMK A01 T00990047  RH  070%=      5-min Rain = 0
KBO2 051912Z 03017KT 10/05 A3025 RMK A01 T00990047  RH  070%=      5-min Rain = 0
KBO2 051913Z 03017KT 10/05 A3025 RMK A01 T00990048  RH  070%=      5-min Rain = 0
KBO2 051914Z 03016KT 10/05 A3025 RMK A01 T00990048  RH  070%=      5-min Rain = 0
KBO2 051915Z 03016G21KT 10/05 A3025 RMK A01 T00990047  RH  070%=      5-min Rain = 0
KBO2 051916Z 03015KT 10/05 A3025 RMK A01 T01000048  RH  070%=      5-min Rain = 0
KBO2 051917Z 03014KT 10/05 A3025 RMK A01 T01000049  RH  070%=      5-min Rain = 0
KBO2 051918Z 03016KT 10/05 A3025 RMK A01 T01020050  RH  070%=      5-min Rain = 0
KBO2 051919Z 03013KT 11/05 A3025 RMK A01 T01060054  RH  070%=      5-min Rain = 0
KBO2 051920Z 02012KT 11/06 A3025 RMK A01 T01120059  RH  069%=      5-min Rain = 0
KBO2 051921Z 02015G20KT 12/06 A3025 RMK A01 T01170056  RH  066%=      5-min Rain = 0
KBO2 051922Z 02015KT 12/05 A3025 RMK A01 T01150053  RH  065%=      5-min Rain = 0
KBO2 051923Z 02016KT 12/06 A3025 RMK A01 T01170056  RH  066%=      5-min Rain = 0
KBO2 051924Z 01016KT 12/05 A3025 RMK A01 T01180053  RH  064%=      5-min Rain = 0
KBO2 051925Z 01015G24KT 11/05 A3025 RMK A01 T01140050  RH  065%=      5-min Rain = 0
KBO2 051926Z 01018G23KT 11/05 A3025 RMK A01 T01120050  RH  065%=      5-min Rain = 0
KBO2 051927Z 02014G20KT 11/05 A3025 RMK A01 T01110049  RH  066%=      5-min Rain = 0
KBO2 051928Z 01016KT 11/05 A3025 RMK A01 T01100049  RH  066%=      5-min Rain = 0
KBO2 051929Z 03016G24KT 11/05 A3025 RMK A01 T01100049  RH  066%=      5-min Rain = 0
KBO2 051930Z 01019G28KT 11/05 A3025 RMK A01 T01100049  RH  066%=      5-min Rain = 0
KBO2 051931Z 01021G27KT 11/05 A3025 RMK A01 T01100047  RH  065%=      5-min Rain = 0
KBO2 051932Z 02018G24KT 11/05 A3025 RMK A01 T01090046  RH  065%=      5-min Rain = 0
KBO2 051933Z 01018KT 11/05 A3025 RMK A01 T01080046  RH  066%=      5-min Rain = 0
KBO2 051934Z 01022G27KT 11/05 A3025 RMK A01 T01080045  RH  065%=      5-min Rain = 0
KBO2 051935Z 01021KT 11/05 A3025 RMK A01 T01070045  RH  065%=      5-min Rain = 0
KBO2 051936Z 01020KT 11/05 A3025 RMK A01 T01070046  RH  066%=      5-min Rain = 0
KBO2 051937Z 02018G24KT 11/05 A3025 RMK A01 T01070046  RH  066%=      5-min Rain = 0
KBO2 051938Z 02017G22KT 11/05 A3025 RMK A01 T01080046  RH  066%=      5-min Rain = 0
KBO2 051939Z 02019G24KT 11/05 A3025 RMK A01 T01090045  RH  065%=      5-min Rain = 0
KBO2 051940Z 02016KT 11/05 A3025 RMK A01 T01100045  RH  064%=      5-min Rain = 0
KBO2 051941Z 02015KT 11/05 A3025 RMK A01 T01140049  RH  064%=      5-min Rain = 0
KBO2 051942Z 02017KT 12/05 A3025 RMK A01 T01170049  RH  063%=      5-min Rain = 0
KBO2 051943Z 03020KT 12/05 A3025 RMK A01 T01190048  RH  062%=      5-min Rain = 0
KBO2 051944Z 03016G23KT 12/05 A3025 RMK A01 T01190047  RH  061%=      5-min Rain = 0
KBO2 051945Z 03015G26KT 12/05 A3024 RMK A01 T01240050  RH  061%=      5-min Rain = 0
KBO2 051946Z 03024G30KT 13/04 A3025 RMK A01 T01260044  RH  057%=      5-min Rain = 0
KBO2 051947Z 02020G29KT 12/04 A3024 RMK A01 T01240040  RH  056%=      5-min Rain = 0
KBO2 051948Z 02022G28KT 13/04 A3024 RMK A01 T01260042  RH  056%=      5-min Rain = 0
KBO2 051949Z 02020KT 13/04 A3024 RMK A01 T01280040  RH  055%=      5-min Rain = 0
KBO2 051950Z 03020G27KT 13/04 A3024 RMK A01 T01250040  RH  056%=      5-min Rain = 0
KBO2 051951Z 02020G26KT 12/04 A3024 RMK A01 T01240040  RH  057%=      5-min Rain = 0
KBO2 051952Z 02020G25KT 12/04 A3024 RMK A01 T01230040  RH  057%=      5-min Rain = 0
KBO2 051953Z 02021G27KT 12/04 A3024 RMK A01 T01210041  RH  058%=      5-min Rain = 0
KBO2 051954Z 02019G24KT 12/04 A3024 RMK A01 T01210041  RH  058%=      5-min Rain = 0
KBO2 051955Z 03017G23KT 12/04 A3024 RMK A01 T01210042  RH  058%=      5-min Rain = 0
KBO2 051956Z 03018G23KT 12/04 A3024 RMK A01 T01210042  RH  058%=      5-min Rain = 0
KBO2 051957Z 03019KT 12/04 A3024 RMK A01 T01210039  RH  057%=      5-min Rain = 0
KBO2 051958Z 03017G22KT 12/04 A3024 RMK A01 T01210040  RH  057%=      5-min Rain = 0
KBO2 051959Z 03019G24KT 12/04 A3024 RMK A01 T01210041  RH  058%=      5-min Rain = 0
KBO2 052000Z 03017KT 12/04 A3024 RMK A01 T01200040  RH  058%=      5-min Rain = 0
KBO2 052001Z 03014G21KT 12/04 A3024 RMK A01 T01180040  RH  059%=      5-min Rain = 0
KBO2 052002Z 02018G26KT 12/04 A3024 RMK A01 T01190040  RH  059%=      5-min Rain = 0
KBO2 052003Z 02020G27KT 12/04 A3024 RMK A01 T01180038  RH  058%=      5-min Rain = 0
KBO2 052004Z 03018G23KT 12/04 A3024 RMK A01 T01160040  RH  059%=      5-min Rain = 0
KBO2 052005Z 04016G23KT 12/04 A3024 RMK A01 T01150041  RH  060%=      5-min Rain = 0
KBO2 052006Z 04019G24KT 12/04 A3025 RMK A01 T01150038  RH  059%=      5-min Rain = 0
KBO2 052007Z 03019KT 12/04 A3025 RMK A01 T01150037  RH  059%=      5-min Rain = 0
KBO2 052008Z 03017G23KT 12/04 A3024 RMK A01 T01150038  RH  059%=      5-min Rain = 0
KBO2 052009Z 03020KT 12/04 A3024 RMK A01 T01150038  RH  059%=      5-min Rain = 0
KBO2 052010Z 03017KT 12/04 A3024 RMK A01 T01160037  RH  059%=      5-min Rain = 0
KBO2 052011Z 04014KT 12/04 A3024 RMK A01 T01180041  RH  059%=      5-min Rain = 0
KBO2 052012Z 04019G24KT 12/04 A3024 RMK A01 T01230043  RH  058%=      5-min Rain = 0
KBO2 052013Z 04018KT 13/04 A3024 RMK A01 T01260043  RH  057%=      5-min Rain = 0
KBO2 052014Z 03016G23KT 13/04 A3024 RMK A01 T01270043  RH  056%=      5-min Rain = 0
KBO2 052015Z 03017G22KT 13/05 A3024 RMK A01 T01300045  RH  056%=      5-min Rain = 0
KBO2 052016Z 03017KT 13/04 A3024 RMK A01 T01320043  RH  055%=      5-min Rain = 0
KBO2 052017Z 03015KT 13/04 A3024 RMK A01 T01320041  RH  054%=      5-min Rain = 0
KBO2 052018Z 05015G20KT 13/05 A3024 RMK A01 T01340045  RH  055%=      5-min Rain = 0
KBO2 052019Z 04019KT 14/04 A3024 RMK A01 T01370042  RH  053%=      5-min Rain = 0
KBO2 052020Z 05015KT 14/04 A3024 RMK A01 T01350041  RH  053%=      5-min Rain = 0
KBO2 052021Z 03015KT 14/04 A3024 RMK A01 T01360044  RH  054%=      5-min Rain = 0
KBO2 052022Z 03014KT 14/04 A3024 RMK A01 T01380041  RH  052%=      5-min Rain = 0
KBO2 052023Z 03009KT 13/04 A3023 RMK A01 T01340040  RH  053%=      5-min Rain = 0
KBO2 052024Z 03015G20KT 14/04 A3024 RMK A01 T01370044  RH  053%=      5-min Rain = 0
KBO2 052025Z 03015G21KT 14/04 A3024 RMK A01 T01380040  RH  051%=      5-min Rain = 0
KBO2 052026Z 04012KT 13/04 A3024 RMK A01 T01340037  RH  052%=      5-min Rain = 0
KBO2 052027Z 03012G17KT 13/04 A3023 RMK A01 T01310038  RH  053%=      5-min Rain = 0
KBO2 052028Z 03015KT 13/03 A3023 RMK A01 T01310034  RH  052%=      5-min Rain = 0
KBO2 052029Z 05014G20KT 13/03 A3024 RMK A01 T01300032  RH  051%=      5-min Rain = 0
KBO2 052030Z 05017G22KT 13/03 A3024 RMK A01 T01290033  RH  052%=      5-min Rain = 0
KBO2 052031Z 05015G21KT 13/03 A3024 RMK A01 T01290034  RH  052%=      5-min Rain = 0
KBO2 052032Z 05015G22KT 13/03 A3024 RMK A01 T01280033  RH  052%=      5-min Rain = 0
KBO2 052033Z 05011G18KT 13/03 A3024 RMK A01 T01260033  RH  053%=      5-min Rain = 0
KBO2 052034Z 04013G18KT 13/03 A3024 RMK A01 T01260034  RH  053%=      5-min Rain = 0
KBO2 052035Z 03016KT 13/04 A3024 RMK A01 T01260035  RH  054%=      5-min Rain = 0
KBO2 052036Z 03016KT 13/04 A3024 RMK A01 T01280036  RH  054%=      5-min Rain = 0
KBO2 052037Z 04013KT 13/04 A3024 RMK A01 T01270036  RH  054%=      5-min Rain = 0
KBO2 052038Z 04011KT 13/04 A3024 RMK A01 T01270037  RH  054%=      5-min Rain = 0
KBO2 052039Z 03014KT 13/04 A3024 RMK A01 T01280038  RH  054%=      5-min Rain = 0
KBO2 052040Z 03013KT 13/04 A3024 RMK A01 T01280037  RH  054%=      5-min Rain = 0
KBO2 052041Z 04012KT 13/04 A3024 RMK A01 T01280038  RH  054%=      5-min Rain = 0
KBO2 052042Z 04013KT 13/04 A3024 RMK A01 T01300042  RH  055%=      5-min Rain = 0
KBO2 052043Z 04017KT 13/04 A3024 RMK A01 T01330042  RH  054%=      5-min Rain = 0
KBO2 052044Z 05017KT 14/04 A3024 RMK A01 T01350042  RH  054%=      5-min Rain = 0
KBO2 052045Z 04015KT 14/04 A3024 RMK A01 T01370040  RH  052%=      5-min Rain = 0
KBO2 052046Z 04013KT 14/04 A3024 RMK A01 T01360040  RH  053%=      5-min Rain = 0
KBO2 052047Z 03013KT 14/04 A3024 RMK A01 T01370041  RH  053%=      5-min Rain = 0
KBO2 052048Z 04013KT 14/04 A3024 RMK A01 T01400040  RH  051%=      5-min Rain = 0
KBO2 052049Z 05012G18KT 14/04 A3024 RMK A01 T01400040  RH  051%=      5-min Rain = 0
KBO2 052050Z 03014G19KT 14/04 A3024 RMK A01 T01430040  RH  050%=      5-min Rain = 0
KBO2 052051Z 03012G17KT 14/04 A3023 RMK A01 T01410038  RH  050%=      5-min Rain = 0
KBO2 052052Z 03014KT 14/04 A3024 RMK A01 T01420040  RH  050%=      5-min Rain = 0
KBO2 052053Z 04015KT 14/04 A3024 RMK A01 T01420038  RH  049%=      5-min Rain = 0
KBO2 052054Z 03011G17KT 14/04 A3023 RMK A01 T01400039  RH  051%=      5-min Rain = 0
KBO2 052055Z 02013G18KT 14/04 A3023 RMK A01 T01440041  RH  050%=      5-min Rain = 0
KBO2 052056Z 03011KT 15/04 A3023 RMK A01 T01470038  RH  048%=      5-min Rain = 0
KBO2 052057Z 04012KT 15/04 A3023 RMK A01 T01480039  RH  048%=      5-min Rain = 0
KBO2 052058Z 04015G20KT 15/04 A3023 RMK A01 T01480039  RH  048%=      5-min Rain = 0
KBO2 052059Z 03014KT 15/04 A3023 RMK A01 T01470037  RH  048%=      5-min Rain = 0
KBO2 052100Z 02017G22KT 15/03 A3023 RMK A01 T01450034  RH  047%=      5-min Rain = 0
KBO2 052101Z 02017KT 14/03 A3023 RMK A01 T01440031  RH  047%=      5-min Rain = 0
KBO2 052102Z 02015KT 14/03 A3023 RMK A01 T01440032  RH  047%=      5-min Rain = 0
KBO2 052103Z 02015G20KT 14/03 A3023 RMK A01 T01430034  RH  048%=      5-min Rain = 0
KBO2 052104Z 01019KT 14/03 A3023 RMK A01 T01440034  RH  048%=      5-min Rain = 0
KBO2 052105Z 01016G22KT 14/03 A3023 RMK A01 T01440033  RH  047%=      5-min Rain = 0
KBO2 052106Z 01015KT 15/03 A3023 RMK A01 T01450032  RH  047%=      5-min Rain = 0
KBO2 052107Z 01015KT 14/03 A3023 RMK A01 T01440033  RH  047%=      5-min Rain = 0
KBO2 052108Z 02015KT 15/03 A3023 RMK A01 T01460032  RH  046%=      5-min Rain = 0
KBO2 052109Z 01018G23KT 15/03 A3023 RMK A01 T01470033  RH  046%=      5-min Rain = 0
KBO2 052110Z 02018KT 15/03 A3023 RMK A01 T01480031  RH  045%=      5-min Rain = 0
KBO2 052111Z 03014KT 15/03 A3023 RMK A01 T01460030  RH  046%=      5-min Rain = 0
KBO2 052112Z 03012G17KT 15/03 A3023 RMK A01 T01460033  RH  047%=      5-min Rain = 0
KBO2 052113Z 05014KT 15/03 A3023 RMK A01 T01490034  RH  046%=      5-min Rain = 0
KBO2 052114Z 04012KT 15/03 A3023 RMK A01 T01460030  RH  046%=      5-min Rain = 0
KBO2 052115Z 02012KT 14/03 A3023 RMK A01 T01410031  RH  047%=      5-min Rain = 0
KBO2 052116Z 02015G20KT 14/03 A3023 RMK A01 T01390032  RH  048%=      5-min Rain = 0
KBO2 052117Z 03017KT 14/04 A3023 RMK A01 T01400035  RH  049%=      5-min Rain = 0
KBO2 052118Z 02018G23KT 14/04 A3023 RMK A01 T01390035  RH  049%=      5-min Rain = 0
KBO2 052119Z 02017KT 14/04 A3023 RMK A01 T01390036  RH  050%=      5-min Rain = 0
KBO2 052120Z 02015KT 14/04 A3023 RMK A01 T01410037  RH  049%=      5-min Rain = 0
KBO2 052121Z 02014KT 14/04 A3023 RMK A01 T01440037  RH  049%=      5-min Rain = 0
KBO2 052122Z 03015G20KT 15/03 A3023 RMK A01 T01470034  RH  047%=      5-min Rain = 0
KBO2 052123Z 04015KT 15/03 A3023 RMK A01 T01490034  RH  046%=      5-min Rain = 0
KBO2 052124Z 04017G23KT 15/03 A3023 RMK A01 T01500033  RH  045%=      5-min Rain = 0
KBO2 052125Z 02017G22KT 15/03 A3023 RMK A01 T01480031  RH  046%=      5-min Rain = 0
KBO2 052126Z 02019KT 15/03 A3023 RMK A01 T01470031  RH  046%=      5-min Rain = 0
KBO2 052127Z 02016G22KT 14/03 A3023 RMK A01 T01440032  RH  047%=      5-min Rain = 0
KBO2 052128Z 01014KT 15/03 A3023 RMK A01 T01470034  RH  047%=      5-min Rain = 0
KBO2 052129Z 02019G26KT 15/03 A3023 RMK A01 T01470030  RH  045%=      5-min Rain = 0
KBO2 052130Z 02018G24KT 14/03 A3023 RMK A01 T01440025  RH  045%=      5-min Rain = 0
KBO2 052131Z 02019KT 14/03 A3023 RMK A01 T01430028  RH  046%=      5-min Rain = 0
KBO2 052132Z 03017KT 14/03 A3024 RMK A01 T01430029  RH  046%=      5-min Rain = 0
KBO2 052133Z 03016KT 15/03 A3023 RMK A01 T01450031  RH  046%=      5-min Rain = 0
KBO2 052134Z 03013KT 15/03 A3023 RMK A01 T01460034  RH  047%=      5-min Rain = 0
KBO2 052135Z 03016KT 15/04 A3023 RMK A01 T01510035  RH  046%=      5-min Rain = 0
KBO2 052136Z 02016G21KT 15/03 A3023 RMK A01 T01520033  RH  045%=      5-min Rain = 0
KBO2 052137Z 01016KT 15/03 A3023 RMK A01 T01510032  RH  045%=      5-min Rain = 0
KBO2 052138Z 01015KT 15/03 A3023 RMK A01 T01480031  RH  045%=      5-min Rain = 0
KBO2 052139Z 02014KT 15/03 A3023 RMK A01 T01470031  RH  046%=      5-min Rain = 0
KBO2 052140Z 02018G25KT 15/03 A3023 RMK A01 T01470031  RH  046%=      5-min Rain = 0
KBO2 052141Z 01013G18KT 15/03 A3023 RMK A01 T01500031  RH  045%=      5-min Rain = 0
KBO2 052142Z 02016G21KT 15/03 A3024 RMK A01 T01540031  RH  044%=      5-min Rain = 0
KBO2 052143Z 02017KT 16/02 A3024 RMK A01 T01550021  RH  041%=      5-min Rain = 0
KBO2 052144Z 02015KT 15/02 A3024 RMK A01 T01520023  RH  042%=      5-min Rain = 0
KBO2 052145Z 01013G19KT 15/03 A3024 RMK A01 T01520026  RH  042%=      5-min Rain = 0
KBO2 052146Z 03017G22KT 15/03 A3024 RMK A01 T01530026  RH  042%=      5-min Rain = 0
KBO2 052147Z 03017KT 15/03 A3024 RMK A01 T01500026  RH  043%=      5-min Rain = 0
KBO2 052148Z 03015KT 15/02 A3024 RMK A01 T01470024  RH  044%=      5-min Rain = 0
KBO2 052149Z 03016KT 14/02 A3024 RMK A01 T01430022  RH  044%=      5-min Rain = 0
KBO2 052150Z 02015KT 14/02 A3024 RMK A01 T01410022  RH  044%=      5-min Rain = 0
KBO2 052151Z 03015G21KT 14/02 A3024 RMK A01 T01420022  RH  044%=      5-min Rain = 0
KBO2 052152Z 03014KT 14/02 A3024 RMK A01 T01430022  RH  044%=      5-min Rain = 0
KBO2 052153Z 02014KT 14/02 A3024 RMK A01 T01430021  RH  044%=      5-min Rain = 0
KBO2 052154Z 00016KT 14/02 A3024 RMK A01 T01430024  RH  045%=      5-min Rain = 0
KBO2 052155Z 01017KT 14/02 A3024 RMK A01 T01430023  RH  044%=      5-min Rain = 0
KBO2 052156Z 02018KT 14/03 A3024 RMK A01 T01430025  RH  045%=      5-min Rain = 0
KBO2 052157Z 01019KT 14/03 A3024 RMK A01 T01430025  RH  045%=      5-min Rain = 0
KBO2 052158Z 01018KT 14/03 A3024 RMK A01 T01430026  RH  045%=      5-min Rain = 0
KBO2 052159Z 01018KT 14/03 A3024 RMK A01 T01440027  RH  045%=      5-min Rain = 0
KBO2 052200Z 02016KT 15/03 A3024 RMK A01 T01450026  RH  045%=      5-min Rain = 0
KBO2 052201Z 02013G19KT 15/03 A3024 RMK A01 T01460027  RH  045%=      5-min Rain = 0
KBO2 052202Z 02014KT 15/03 A3024 RMK A01 T01490028  RH  044%=      5-min Rain = 0
KBO2 052203Z 03015KT 15/03 A3024 RMK A01 T01510026  RH  043%=      5-min Rain = 0
KBO2 052204Z 03013G18KT 15/03 A3024 RMK A01 T01530026  RH  042%=      5-min Rain = 0
KBO2 052205Z 04012G18KT 16/03 A3024 RMK A01 T01550028  RH  042%=      5-min Rain = 0
KBO2 052206Z 03015KT 16/03 A3024 RMK A01 T01550025  RH  042%=      5-min Rain = 0
KBO2 052207Z 04014KT 15/03 A3024 RMK A01 T01480025  RH  043%=      5-min Rain = 0
KBO2 052208Z 04015KT 15/03 A3024 RMK A01 T01460027  RH  045%=      5-min Rain = 0
KBO2 052209Z 04014KT 15/03 A3024 RMK A01 T01480028  RH  045%=      5-min Rain = 0
KBO2 052210Z 04013KT 15/03 A3024 RMK A01 T01520029  RH  044%=      5-min Rain = 0
KBO2 052211Z 04014KT 15/03 A3024 RMK A01 T01530028  RH  043%=      5-min Rain = 0
KBO2 052212Z 03014KT 15/03 A3024 RMK A01 T01520028  RH  043%=      5-min Rain = 0
KBO2 052213Z 03012KT 15/03 A3024 RMK A01 T01510028  RH  043%=      5-min Rain = 0
KBO2 052214Z 02011KT 15/03 A3024 RMK A01 T01510029  RH  044%=      5-min Rain = 0
KBO2 052215Z 02008KT 15/03 A3024 RMK A01 T01510029  RH  044%=      5-min Rain = 0
KBO2 052216Z 02009KT 15/03 A3024 RMK A01 T01530029  RH  043%=      5-min Rain = 0
KBO2 052217Z 01011G16KT 15/03 A3024 RMK A01 T01540029  RH  043%=      5-min Rain = 0
KBO2 052218Z 01013G18KT 16/03 A3024 RMK A01 T01570027  RH  042%=      5-min Rain = 0
KBO2 052219Z 03012KT 16/03 A3024 RMK A01 T01570026  RH  041%=      5-min Rain = 0
KBO2 052220Z 03011KT 16/03 A3024 RMK A01 T01570028  RH  042%=      5-min Rain = 0
KBO2 052221Z 03012KT 16/03 A3024 RMK A01 T01580028  RH  042%=      5-min Rain = 0
KBO2 052222Z 00014G20KT 16/03 A3024 RMK A01 T01560026  RH  041%=      5-min Rain = 0
KBO2 052223Z 00013KT 16/03 A3024 RMK A01 T01560025  RH  041%=      5-min Rain = 0
KBO2 052224Z 01010KT 16/03 A3024 RMK A01 T01580028  RH  042%=      5-min Rain = 0
KBO2 052225Z 01010G15KT 16/03 A3024 RMK A01 T01590027  RH  041%=      5-min Rain = 0
KBO2 052226Z 01010KT 16/03 A3024 RMK A01 T01580030  RH  042%=      5-min Rain = 0
KBO2 052227Z 01011KT 16/03 A3024 RMK A01 T01610029  RH  041%=      5-min Rain = 0
KBO2 052228Z 01012KT 16/03 A3024 RMK A01 T01610027  RH  041%=      5-min Rain = 0
KBO2 052229Z 01012G19KT 16/03 A3024 RMK A01 T01600028  RH  041%=      5-min Rain = 0
KBO2 052230Z 02013G19KT 16/03 A3024 RMK A01 T01610027  RH  040%=      5-min Rain = 0
KBO2 052231Z 02014KT 16/03 A3024 RMK A01 T01610025  RH  040%=      5-min Rain = 0
KBO2 052232Z 03014KT 16/02 A3025 RMK A01 T01570024  RH  041%=      5-min Rain = 0
KBO2 052233Z 03015KT 16/02 A3024 RMK A01 T01550024  RH  041%=      5-min Rain = 0
KBO2 052234Z 02014KT 15/02 A3024 RMK A01 T01540022  RH  041%=      5-min Rain = 0
KBO2 052235Z 03014KT 15/02 A3024 RMK A01 T01530021  RH  041%=      5-min Rain = 0
KBO2 052236Z 03014KT 15/02 A3024 RMK A01 T01540023  RH  041%=      5-min Rain = 0
KBO2 052237Z 01014KT 16/02 A3024 RMK A01 T01560022  RH  040%=      5-min Rain = 0
KBO2 052238Z 02015KT 15/02 A3024 RMK A01 T01530020  RH  041%=      5-min Rain = 0
KBO2 052239Z 03014KT 15/02 A3024 RMK A01 T01500021  RH  042%=      5-min Rain = 0
KBO2 052240Z 02012KT 15/02 A3024 RMK A01 T01480021  RH  042%=      5-min Rain = 0
KBO2 052241Z 02011KT 15/02 A3024 RMK A01 T01470022  RH  043%=      5-min Rain = 0
KBO2 052242Z 02011KT 15/02 A3024 RMK A01 T01470022  RH  043%=      5-min Rain = 0
KBO2 052243Z 02013G19KT 15/02 A3024 RMK A01 T01480022  RH  043%=      5-min Rain = 0
KBO2 052244Z 02016KT 15/02 A3024 RMK A01 T01490016  RH  041%=      5-min Rain = 0
KBO2 052245Z 01016KT 15/02 A3024 RMK A01 T01500016  RH  040%=      5-min Rain = 0
KBO2 052246Z 01015KT 15/02 A3024 RMK A01 T01510016  RH  040%=      5-min Rain = 0
KBO2 052247Z 01012KT 15/02 A3024 RMK A01 T01520015  RH  039%=      5-min Rain = 0
KBO2 052248Z 02014KT 15/02 A3024 RMK A01 T01510015  RH  040%=      5-min Rain = 0
KBO2 052249Z 01014KT 15/02 A3024 RMK A01 T01510015  RH  040%=      5-min Rain = 0
KBO2 052250Z 01012KT 15/02 A3024 RMK A01 T01500015  RH  040%=      5-min Rain = 0
KBO2 052251Z 02010KT 15/02 A3024 RMK A01 T01500017  RH  040%=      5-min Rain = 0
KBO2 052252Z 02013KT 15/02 A3024 RMK A01 T01540018  RH  040%=      5-min Rain = 0
KBO2 052253Z 03014KT 16/02 A3024 RMK A01 T01550016  RH  039%=      5-min Rain = 0
KBO2 052254Z 03013KT 15/02 A3024 RMK A01 T01530016  RH  039%=      5-min Rain = 0
KBO2 052255Z 01016G21KT 15/02 A3024 RMK A01 T01530018  RH  040%=      5-min Rain = 0
KBO2 052256Z 02014G20KT 16/02 A3024 RMK A01 T01550017  RH  039%=      5-min Rain = 0
KBO2 052257Z 01013KT 16/02 A3024 RMK A01 T01560017  RH  039%=      5-min Rain = 0
KBO2 052258Z 01014KT 16/02 A3024 RMK A01 T01560018  RH  039%=      5-min Rain = 0
KBO2 052259Z 36014KT 15/02 A3024 RMK A01 T01540018  RH  040%=      5-min Rain = 0
KBO2 052300Z 01014KT 15/02 A3024 RMK A01 T01540018  RH  040%=      5-min Rain = 0
KBO2 052301Z 02012G18KT 15/02 A3024 RMK A01 T01540017  RH  039%=      5-min Rain = 0
KBO2 052302Z 01012KT 16/02 A3024 RMK A01 T01560018  RH  039%=      5-min Rain = 0
KBO2 052303Z 02012G19KT 16/02 A3024 RMK A01 T01580016  RH  038%=      5-min Rain = 0
KBO2 052304Z 03013KT 16/02 A3024 RMK A01 T01590018  RH  039%=      5-min Rain = 0
KBO2 052305Z 04013KT 16/02 A3024 RMK A01 T01590023  RH  040%=      5-min Rain = 0
KBO2 052306Z 03014KT 16/02 A3025 RMK A01 T01580024  RH  041%=      5-min Rain = 0
KBO2 052307Z 04013G19KT 16/02 A3025 RMK A01 T01570024  RH  041%=      5-min Rain = 0
KBO2 052308Z 04013KT 16/02 A3025 RMK A01 T01550021  RH  040%=      5-min Rain = 0
KBO2 052309Z 05012KT 15/02 A3025 RMK A01 T01530020  RH  041%=      5-min Rain = 0
KBO2 052310Z 05013G20KT 15/02 A3025 RMK A01 T01540020  RH  040%=      5-min Rain = 0
KBO2 052311Z 05017KT 15/02 A3025 RMK A01 T01540019  RH  040%=      5-min Rain = 0
KBO2 052312Z 05015KT 15/02 A3025 RMK A01 T01520019  RH  041%=      5-min Rain = 0
KBO2 052313Z 05016KT 15/02 A3025 RMK A01 T01500018  RH  041%=      5-min Rain = 0
KBO2 052314Z 05015KT 15/02 A3025 RMK A01 T01480017  RH  041%=      5-min Rain = 0
KBO2 052315Z 05014KT 15/02 A3025 RMK A01 T01480018  RH  041%=      5-min Rain = 0
KBO2 052316Z 05012KT 15/02 A3025 RMK A01 T01480018  RH  041%=      5-min Rain = 0
KBO2 052317Z 05011KT 15/02 A3025 RMK A01 T01490018  RH  041%=      5-min Rain = 0
KBO2 052318Z 04012KT 15/02 A3025 RMK A01 T01500017  RH  041%=      5-min Rain = 0
KBO2 052319Z 05010KT 15/02 A3025 RMK A01 T01490017  RH  041%=      5-min Rain = 0
KBO2 052320Z 05012KT 15/02 A3025 RMK A01 T01490018  RH  041%=      5-min Rain = 0
KBO2 052321Z 05013KT 15/02 A3025 RMK A01 T01490018  RH  041%=      5-min Rain = 0
KBO2 052322Z 05011KT 15/02 A3025 RMK A01 T01490018  RH  041%=      5-min Rain = 0
KBO2 052323Z 04013KT 15/02 A3025 RMK A01 T01480017  RH  041%=      5-min Rain = 0
KBO2 052324Z 04014KT 15/02 A3025 RMK A01 T01480017  RH  041%=      5-min Rain = 0
KBO2 052325Z 03012KT 15/02 A3025 RMK A01 T01460018  RH  042%=      5-min Rain = 0
KBO2 052326Z 04014KT 15/02 A3025 RMK A01 T01460018  RH  042%=      5-min Rain = 0
KBO2 052327Z 04014KT 15/02 A3025 RMK A01 T01450019  RH  042%=      5-min Rain = 0
KBO2 052328Z 04014KT 15/02 A3025 RMK A01 T01450019  RH  042%=      5-min Rain = 0
KBO2 052329Z 04013KT 14/02 A3025 RMK A01 T01440018  RH  042%=      5-min Rain = 0
KBO2 052330Z 04010KT 14/02 A3025 RMK A01 T01440019  RH  043%=      5-min Rain = 0
KBO2 052331Z 04011KT 14/02 A3025 RMK A01 T01440019  RH  043%=      5-min Rain = 0
KBO2 052332Z 04011KT 14/02 A3025 RMK A01 T01440019  RH  043%=      5-min Rain = 0
KBO2 052333Z 04010KT 14/02 A3025 RMK A01 T01440020  RH  043%=      5-min Rain = 0
KBO2 052334Z 04010KT 15/02 A3025 RMK A01 T01450020  RH  043%=      5-min Rain = 0
KBO2 052335Z 03011KT 15/02 A3025 RMK A01 T01450020  RH  043%=      5-min Rain = 0
KBO2 052336Z 03009KT 14/02 A3025 RMK A01 T01440020  RH  043%=      5-min Rain = 0
KBO2 052337Z 04011KT 14/02 A3025 RMK A01 T01440020  RH  043%=      5-min Rain = 0
KBO2 052338Z 04011KT 14/02 A3025 RMK A01 T01440019  RH  043%=      5-min Rain = 0
KBO2 052339Z 03011KT 14/02 A3025 RMK A01 T01440019  RH  043%=      5-min Rain = 0
KBO2 052340Z 03010KT 14/02 A3025 RMK A01 T01440019  RH  043%=      5-min Rain = 0
KBO2 052341Z 04011KT 14/02 A3025 RMK A01 T01440019  RH  043%=      5-min Rain = 0
KBO2 052342Z 04011KT 14/02 A3025 RMK A01 T01440019  RH  043%=      5-min Rain = 0
KBO2 052343Z 03010KT 14/02 A3025 RMK A01 T01440019  RH  043%=      5-min Rain = 0
KBO2 052344Z 03010KT 14/02 A3025 RMK A01 T01440019  RH  043%=      5-min Rain = 0
KBO2 052345Z 03011KT 14/02 A3025 RMK A01 T01440019  RH  043%=      5-min Rain = 0
KBO2 052346Z 03010KT 14/02 A3025 RMK A01 T01440018  RH  042%=      5-min Rain = 0
KBO2 052347Z 03009KT 14/02 A3025 RMK A01 T01440018  RH  042%=      5-min Rain = 0
KBO2 052348Z 03010KT 14/02 A3025 RMK A01 T01440018  RH  042%=      5-min Rain = 0
KBO2 052349Z 03009KT 14/02 A3025 RMK A01 T01440017  RH  042%=      5-min Rain = 0
KBO2 052350Z 03009KT 14/02 A3025 RMK A01 T01440017  RH  042%=      5-min Rain = 0
KBO2 052351Z 03011KT 15/02 A3025 RMK A01 T01450015  RH  041%=      5-min Rain = 0
KBO2 052352Z 03012KT 15/01 A3025 RMK A01 T01450014  RH  041%=      5-min Rain = 0
KBO2 052353Z 03012KT 14/01 A3025 RMK A01 T01440014  RH  041%=      5-min Rain = 0
KBO2 052354Z 03012KT 14/01 A3025 RMK A01 T01440014  RH  041%=      5-min Rain = 0
KBO2 052355Z 03010KT 14/01 A3025 RMK A01 T01430014  RH  041%=      5-min Rain = 0
KBO2 052356Z 03012KT 14/02 A3025 RMK A01 T01430015  RH  042%=      5-min Rain = 0
KBO2 052357Z 03014KT 14/02 A3026 RMK A01 T01430017  RH  042%=      5-min Rain = 0
KBO2 052358Z 04011KT 14/02 A3026 RMK A01 T01430019  RH  043%=      5-min Rain = 0
KBO2 052359Z 04013KT 14/02 A3026 RMK A01 T01430020  RH  043%=      5-min Rain = 0
KBO2 060000Z 04011KT 14/02 A3026 RMK A01 T01430020  RH  043%=      5-min Rain = 0
KBO2 060001Z 05010KT 14/02 A3026 RMK A01 T01420019  RH  043%=      5-min Rain = 0
KBO2 060002Z 05011KT 14/02 A3026 RMK A01 T01420020  RH  043%=      5-min Rain = 0
KBO2 060003Z 04010KT 14/02 A3026 RMK A01 T01420020  RH  044%=      5-min Rain = 0
KBO2 060004Z 05012KT 14/02 A3026 RMK A01 T01410020  RH  044%=      5-min Rain = 0
KBO2 060005Z 05012KT 14/02 A3026 RMK A01 T01400020  RH  044%=      5-min Rain = 0
KBO2 060006Z 05010KT 14/02 A3026 RMK A01 T01390020  RH  044%=      5-min Rain = 0
KBO2 060007Z 05010KT 14/02 A3026 RMK A01 T01380020  RH  045%=      5-min Rain = 0
KBO2 060008Z 05011KT 14/02 A3026 RMK A01 T01370019  RH  045%=      5-min Rain = 0
KBO2 060009Z 05010KT 14/02 A3026 RMK A01 T01370019  RH  045%=      5-min Rain = 0
KBO2 060010Z 05009KT 14/02 A3026 RMK A01 T01360019  RH  045%=      5-min Rain = 0
KBO2 060011Z 05009KT 14/02 A3026 RMK A01 T01350019  RH  045%=      5-min Rain = 0
KBO2 060012Z 05008KT 13/02 A3026 RMK A01 T01340019  RH  046%=      5-min Rain = 0
KBO2 060013Z 05009KT 13/02 A3026 RMK A01 T01340019  RH  046%=      5-min Rain = 0
KBO2 060014Z 05009KT 13/02 A3026 RMK A01 T01330019  RH  046%=      5-min Rain = 0
KBO2 060015Z 04009KT 13/02 A3026 RMK A01 T01330019  RH  046%=      5-min Rain = 0
KBO2 060016Z 05008KT 13/02 A3026 RMK A01 T01320019  RH  046%=      5-min Rain = 0
KBO2 060017Z 04009KT 13/02 A3026 RMK A01 T01310019  RH  046%=      5-min Rain = 0
KBO2 060018Z 04010KT 13/02 A3026 RMK A01 T01310018  RH  046%=      5-min Rain = 0
KBO2 060019Z 04008KT 13/02 A3026 RMK A01 T01310018  RH  046%=      5-min Rain = 0
KBO2 060020Z 04008KT 13/02 A3026 RMK A01 T01310018  RH  046%=      5-min Rain = 0
KBO2 060021Z 04008KT 13/02 A3026 RMK A01 T01300018  RH  046%=      5-min Rain = 0
KBO2 060022Z 04007KT 13/02 A3026 RMK A01 T01290018  RH  047%=      5-min Rain = 0
KBO2 060023Z 04008KT 13/02 A3026 RMK A01 T01280018  RH  047%=      5-min Rain = 0
KBO2 060024Z 04007KT 13/02 A3026 RMK A01 T01280018  RH  047%=      5-min Rain = 0
KBO2 060025Z 04008KT 13/02 A3026 RMK A01 T01270018  RH  047%=      5-min Rain = 0
KBO2 060026Z 04007KT 13/02 A3026 RMK A01 T01260017  RH  047%=      5-min Rain = 0
KBO2 060027Z 04007KT 13/02 A3026 RMK A01 T01250017  RH  048%=      5-min Rain = 0
KBO2 060028Z 04007KT 12/02 A3026 RMK A01 T01240017  RH  048%=      5-min Rain = 0
KBO2 060029Z 04007KT 12/02 A3026 RMK A01 T01230017  RH  048%=      5-min Rain = 0
KBO2 060030Z 04007KT 12/02 A3026 RMK A01 T01220017  RH  049%=      5-min Rain = 0
KBO2 060031Z 04007KT 12/02 A3026 RMK A01 T01210016  RH  049%=      5-min Rain = 0
KBO2 060032Z 04007KT 12/02 A3026 RMK A01 T01190016  RH  049%=      5-min Rain = 0
KBO2 060033Z 04007KT 12/02 A3026 RMK A01 T01180016  RH  049%=      5-min Rain = 0
KBO2 060034Z 04007KT 12/02 A3026 RMK A01 T01170016  RH  050%=      5-min Rain = 0
KBO2 060035Z 04006KT 12/02 A3026 RMK A01 T01160015  RH  050%=      5-min Rain = 0
KBO2 060036Z 03006KT 12/02 A3026 RMK A01 T01150015  RH  050%=      5-min Rain = 0
KBO2 060037Z 03006KT 11/02 A3026 RMK A01 T01140015  RH  051%=      5-min Rain = 0
KBO2 060038Z 03006KT 11/02 A3026 RMK A01 T01130015  RH  051%=      5-min Rain = 0
KBO2 060039Z 03006KT 11/02 A3026 RMK A01 T01120015  RH  051%=      5-min Rain = 0
KBO2 060040Z 03006KT 11/01 A3026 RMK A01 T01110014  RH  051%=      5-min Rain = 0
KBO2 060041Z 03006KT 11/01 A3026 RMK A01 T01100014  RH  052%=      5-min Rain = 0
KBO2 060042Z 02006KT 11/01 A3026 RMK A01 T01090013  RH  052%=      5-min Rain = 0
KBO2 060043Z 02007KT 11/01 A3027 RMK A01 T01080014  RH  052%=      5-min Rain = 0
KBO2 060044Z 02007KT 11/01 A3027 RMK A01 T01080013  RH  052%=      5-min Rain = 0
KBO2 060045Z 02007KT 11/01 A3027 RMK A01 T01090013  RH  052%=      5-min Rain = 0
KBO2 060046Z 02007KT 11/01 A3027 RMK A01 T01080013  RH  052%=      5-min Rain = 0
KBO2 060047Z 02007KT 11/01 A3027 RMK A01 T01080013  RH  052%=      5-min Rain = 0
KBO2 060048Z 02007KT 11/01 A3027 RMK A01 T01080012  RH  052%=      5-min Rain = 0
KBO2 060049Z 02007KT 11/01 A3027 RMK A01 T01080012  RH  052%=      5-min Rain = 0
KBO2 060050Z 03008KT 11/01 A3027 RMK A01 T01070011  RH  052%=      5-min Rain = 0
KBO2 060051Z 03008KT 11/01 A3027 RMK A01 T01060011  RH  052%=      5-min Rain = 0
KBO2 060052Z 03008KT 11/01 A3027 RMK A01 T01060011  RH  052%=      5-min Rain = 0
KBO2 060053Z 04009KT 11/01 A3027 RMK A01 T01060011  RH  052%=      5-min Rain = 0
KBO2 060054Z 04009KT 11/01 A3027 RMK A01 T01060011  RH  052%=      5-min Rain = 0
KBO2 060055Z 05008KT 11/01 A3027 RMK A01 T01050011  RH  052%=      5-min Rain = 0
KBO2 060056Z 06008KT 10/01 A3027 RMK A01 T01040009  RH  052%=      5-min Rain = 0
KBO2 060057Z 06006KT 10/01 A3027 RMK A01 T01010009  RH  053%=      5-min Rain = 0
KBO2 060058Z 06006KT 10/01 A3027 RMK A01 T00980010  RH  054%=      5-min Rain = 0
KBO2 060059Z 06006KT 10/01 A3027 RMK A01 T00970010  RH  055%=      5-min Rain = 0
KBO2 060100Z 06006KT 10/01 A3027 RMK A01 T00970011  RH  055%=      5-min Rain = 0
KBO2 060101Z 05006KT 10/01 A3027 RMK A01 T00970011  RH  055%=      5-min Rain = 0
KBO2 060102Z 06006KT 10/01 A3027 RMK A01 T00970011  RH  055%=      5-min Rain = 0
KBO2 060103Z 05005KT 10/01 A3027 RMK A01 T00970011  RH  055%=      5-min Rain = 0
KBO2 060104Z 05006KT 10/01 A3027 RMK A01 T00970011  RH  055%=      5-min Rain = 0
KBO2 060105Z 05006KT 10/01 A3027 RMK A01 T00980012  RH  055%=      5-min Rain = 0
KBO2 060106Z 05006KT 10/01 A3027 RMK A01 T00990012  RH  055%=      5-min Rain = 0
KBO2 060107Z 05005KT 10/01 A3027 RMK A01 T00990012  RH  054%=      5-min Rain = 0
KBO2 060108Z 06006KT 10/01 A3027 RMK A01 T00990012  RH  055%=      5-min Rain = 0
KBO2 060109Z 05006KT 10/01 A3027 RMK A01 T00990013  RH  055%=      5-min Rain = 0
KBO2 060110Z 05005KT 10/01 A3027 RMK A01 T00990013  RH  055%=      5-min Rain = 0
KBO2 060111Z 06005KT 10/01 A3027 RMK A01 T01000013  RH  055%=      5-min Rain = 0
KBO2 060112Z 06005KT 10/01 A3027 RMK A01 T01000013  RH  055%=      5-min Rain = 0
KBO2 060113Z 06005KT 10/01 A3027 RMK A01 T01000013  RH  055%=      5-min Rain = 0
KBO2 060114Z 06006KT 10/01 A3027 RMK A01 T01000014  RH  055%=      5-min Rain = 0
KBO2 060115Z 07005KT 10/01 A3027 RMK A01 T00990014  RH  055%=      5-min Rain = 0
KBO2 060116Z 06006KT 10/01 A3028 RMK A01 T00990014  RH  056%=      5-min Rain = 0
KBO2 060117Z 07006KT 10/01 A3028 RMK A01 T00990014  RH  056%=      5-min Rain = 0
KBO2 060118Z 06006KT 10/01 A3028 RMK A01 T00990014  RH  056%=      5-min Rain = 0
KBO2 060119Z 07006KT 10/01 A3028 RMK A01 T00980014  RH  056%=      5-min Rain = 0
KBO2 060120Z 06006KT 10/01 A3028 RMK A01 T00970014  RH  056%=      5-min Rain = 0
KBO2 060121Z 06006KT 10/01 A3028 RMK A01 T00960014  RH  057%=      5-min Rain = 0
KBO2 060122Z 06006KT 10/02 A3028 RMK A01 T00960015  RH  057%=      5-min Rain = 0
KBO2 060123Z 06006KT 10/02 A3028 RMK A01 T00950015  RH  057%=      5-min Rain = 0
KBO2 060124Z 06006KT 10/02 A3028 RMK A01 T00950015  RH  057%=      5-min Rain = 0
KBO2 060125Z 06006KT 10/02 A3028 RMK A01 T00950015  RH  057%=      5-min Rain = 0
KBO2 060126Z 06006KT 10/02 A3028 RMK A01 T00950015  RH  058%=      5-min Rain = 0
KBO2 060127Z 07006KT 10/02 A3028 RMK A01 T00950015  RH  058%=      5-min Rain = 0
KBO2 060128Z 07005KT 10/02 A3028 RMK A01 T00950015  RH  058%=      5-min Rain = 0
KBO2 060129Z 06005KT 09/02 A3028 RMK A01 T00940015  RH  058%=      5-min Rain = 0
KBO2 060130Z 07005KT 09/02 A3028 RMK A01 T00940015  RH  058%=      5-min Rain = 0
KBO2 060131Z 07005KT 09/02 A3028 RMK A01 T00940015  RH  058%=      5-min Rain = 0
KBO2 060132Z 07005KT 09/02 A3028 RMK A01 T00940015  RH  058%=      5-min Rain = 0
KBO2 060133Z 06005KT 09/02 A3028 RMK A01 T00930015  RH  058%=      5-min Rain = 0
KBO2 060134Z 06005KT 09/02 A3028 RMK A01 T00930016  RH  058%=      5-min Rain = 0
KBO2 060135Z 07005KT 09/02 A3028 RMK A01 T00930016  RH  058%=      5-min Rain = 0
KBO2 060136Z 07004KT 09/02 A3028 RMK A01 T00940016  RH  058%=      5-min Rain = 0
KBO2 060137Z 07004KT 09/02 A3028 RMK A01 T00940016  RH  058%=      5-min Rain = 0
KBO2 060138Z 07004KT 09/02 A3028 RMK A01 T00940017  RH  059%=      5-min Rain = 0
KBO2 060139Z 07004KT 09/02 A3028 RMK A01 T00940017  RH  059%=      5-min Rain = 0
KBO2 060140Z 07004KT 09/02 A3028 RMK A01 T00940017  RH  059%=      5-min Rain = 0
KBO2 060141Z 07004KT 10/02 A3028 RMK A01 T00950017  RH  058%=      5-min Rain = 0
KBO2 060142Z 07004KT 10/02 A3029 RMK A01 T00950017  RH  058%=      5-min Rain = 0
KBO2 060143Z 07005KT 10/02 A3029 RMK A01 T00950017  RH  058%=      5-min Rain = 0
KBO2 060144Z 07004KT 10/02 A3029 RMK A01 T00950018  RH  059%=      5-min Rain = 0
KBO2 060145Z 07004KT 10/02 A3029 RMK A01 T00950018  RH  058%=      5-min Rain = 0
KBO2 060146Z 08005KT 10/02 A3029 RMK A01 T00960018  RH  058%=      5-min Rain = 0
KBO2 060147Z 07005KT 10/02 A3029 RMK A01 T00960018  RH  058%=      5-min Rain = 0
KBO2 060148Z 07005KT 10/02 A3029 RMK A01 T00950017  RH  058%=      5-min Rain = 0
KBO2 060149Z 07005KT 09/02 A3029 RMK A01 T00940017  RH  059%=      5-min Rain = 0
KBO2 060150Z 07005KT 09/02 A3029 RMK A01 T00940017  RH  059%=      5-min Rain = 0
KBO2 060151Z 07005KT 09/02 A3029 RMK A01 T00940018  RH  059%=      5-min Rain = 0
KBO2 060152Z 07004KT 09/02 A3029 RMK A01 T00940018  RH  059%=      5-min Rain = 0
KBO2 060153Z 07005KT 09/02 A3029 RMK A01 T00930018  RH  059%=      5-min Rain = 0
KBO2 060154Z 07005KT 09/02 A3029 RMK A01 T00930018  RH  059%=      5-min Rain = 0
KBO2 060155Z 08005KT 09/02 A3029 RMK A01 T00930018  RH  059%=      5-min Rain = 0
KBO2 060156Z 08005KT 09/02 A3029 RMK A01 T00930018  RH  060%=      5-min Rain = 0
KBO2 060157Z 08005KT 09/02 A3029 RMK A01 T00930018  RH  059%=      5-min Rain = 0
KBO2 060158Z 09005KT 09/02 A3029 RMK A01 T00920018  RH  060%=      5-min Rain = 0
KBO2 060159Z 09005KT 09/02 A3029 RMK A01 T00920018  RH  060%=      5-min Rain = 0
KBO2 060200Z 09004KT 09/02 A3029 RMK A01 T00910017  RH  060%=      5-min Rain = 0
KBO2 060201Z 09004KT 09/02 A3029 RMK A01 T00900017  RH  060%=      5-min Rain = 0
KBO2 060202Z 09004KT 09/02 A3029 RMK A01 T00890017  RH  061%=      5-min Rain = 0
KBO2 060203Z 09004KT 09/02 A3029 RMK A01 T00890018  RH  061%=      5-min Rain = 0
KBO2 060204Z 09004KT 09/02 A3029 RMK A01 T00880018  RH  061%=      5-min Rain = 0
KBO2 060205Z 10004KT 09/02 A3029 RMK A01 T00880018  RH  061%=      5-min Rain = 0
KBO2 060206Z 10004KT 09/02 A3029 RMK A01 T00880018  RH  061%=      5-min Rain = 0
KBO2 060207Z 10004KT 09/02 A3029 RMK A01 T00880018  RH  061%=      5-min Rain = 0
KBO2 060208Z 10004KT 09/02 A3029 RMK A01 T00890018  RH  061%=      5-min Rain = 0
KBO2 060209Z 10004KT 09/02 A3029 RMK A01 T00900018  RH  061%=      5-min Rain = 0
KBO2 060210Z 10004KT 09/02 A3029 RMK A01 T00900018  RH  061%=      5-min Rain = 0
KBO2 060211Z 10004KT 09/02 A3029 RMK A01 T00910018  RH  061%=      5-min Rain = 0
KBO2 060212Z 10004KT 09/02 A3029 RMK A01 T00910018  RH  060%=      5-min Rain = 0
KBO2 060213Z 11005KT 09/02 A3029 RMK A01 T00910018  RH  060%=      5-min Rain = 0
KBO2 060214Z 11005KT 09/02 A3029 RMK A01 T00900018  RH  060%=      5-min Rain = 0
KBO2 060215Z 11004KT 09/02 A3029 RMK A01 T00890017  RH  061%=      5-min Rain = 0
KBO2 060216Z 12004KT 09/02 A3029 RMK A01 T00880017  RH  061%=      5-min Rain = 0
KBO2 060217Z 12004KT 09/02 A3029 RMK A01 T00870017  RH  062%=      5-min Rain = 0
KBO2 060218Z 11004KT 09/02 A3029 RMK A01 T00860017  RH  062%=      5-min Rain = 0
KBO2 060219Z 11004KT 09/02 A3029 RMK A01 T00860017  RH  062%=      5-min Rain = 0
KBO2 060220Z 11004KT 09/02 A3029 RMK A01 T00850016  RH  062%=      5-min Rain = 0
KBO2 060221Z 11004KT 08/02 A3029 RMK A01 T00840016  RH  062%=      5-min Rain = 0
KBO2 060222Z 12004KT 08/02 A3029 RMK A01 T00840017  RH  063%=      5-min Rain = 0
KBO2 060223Z 11004KT 08/02 A3029 RMK A01 T00830017  RH  063%=      5-min Rain = 0
KBO2 060224Z 11004KT 08/02 A3029 RMK A01 T00830017  RH  063%=      5-min Rain = 0
KBO2 060225Z 11004KT 08/02 A303 RMK A01 T00830017  RH  063%=      5-min Rain = 0
KBO2 060226Z 11004KT 08/02 A303 RMK A01 T00830017  RH  063%=      5-min Rain = 0
KBO2 060227Z 11004KT 08/02 A303 RMK A01 T00830017  RH  063%=      5-min Rain = 0
KBO2 060228Z 11004KT 08/02 A303 RMK A01 T00830017  RH  063%=      5-min Rain = 0
KBO2 060229Z 12004KT 08/02 A303 RMK A01 T00820016  RH  063%=      5-min Rain = 0
KBO2 060230Z 12004KT 08/02 A303 RMK A01 T00810016  RH  063%=      5-min Rain = 0
KBO2 060231Z 12004KT 08/02 A303 RMK A01 T00810016  RH  064%=      5-min Rain = 0
KBO2 060232Z 12003KT 08/02 A303 RMK A01 T00800016  RH  064%=      5-min Rain = 0
KBO2 060233Z 12004KT 08/02 A303 RMK A01 T00800017  RH  064%=      5-min Rain = 0
KBO2 060234Z 12004KT 08/02 A303 RMK A01 T00810017  RH  064%=      5-min Rain = 0
KBO2 060235Z 12004KT 08/02 A303 RMK A01 T00810015  RH  063%=      5-min Rain = 0
KBO2 060236Z 12004KT 08/02 A303 RMK A01 T00800016  RH  064%=      5-min Rain = 0
KBO2 060237Z 12004KT 08/02 A303 RMK A01 T00790016  RH  064%=      5-min Rain = 0
KBO2 060238Z 12004KT 08/02 A303 RMK A01 T00780015  RH  065%=      5-min Rain = 0
KBO2 060239Z 12004KT 08/02 A303 RMK A01 T00770015  RH  065%=      5-min Rain = 0
KBO2 060240Z 12004KT 08/02 A303 RMK A01 T00760015  RH  065%=      5-min Rain = 0
KBO2 060241Z 12004KT 08/01 A303 RMK A01 T00750014  RH  065%=      5-min Rain = 0
KBO2 060242Z 13004KT 07/01 A303 RMK A01 T00720013  RH  066%=      5-min Rain = 0
KBO2 060243Z 13004KT 07/01 A303 RMK A01 T00710013  RH  067%=      5-min Rain = 0
KBO2 060244Z 13004KT 07/01 A303 RMK A01 T00690013  RH  067%=      5-min Rain = 0
KBO2 060245Z 13004KT 07/01 A303 RMK A01 T00680013  RH  068%=      5-min Rain = 0
KBO2 060246Z 13005KT 07/01 A303 RMK A01 T00680012  RH  068%=      5-min Rain = 0
KBO2 060247Z 13005KT 07/01 A303 RMK A01 T00660011  RH  068%=      5-min Rain = 0
KBO2 060248Z 13005KT 07/01 A303 RMK A01 T00650011  RH  068%=      5-min Rain = 0
KBO2 060249Z 14005KT 06/01 A303 RMK A01 T00640011  RH  069%=      5-min Rain = 0
KBO2 060250Z 14005KT 06/01 A303 RMK A01 T00630010  RH  069%=      5-min Rain = 0
KBO2 060251Z 14005KT 06/01 A303 RMK A01 T00620010  RH  069%=      5-min Rain = 0
KBO2 060252Z 14005KT 06/01 A303 RMK A01 T00610010  RH  070%=      5-min Rain = 0
KBO2 060253Z 14005KT 06/01 A3031 RMK A01 T00600010  RH  070%=      5-min Rain = 0
KBO2 060254Z 14005KT 06/01 A3031 RMK A01 T00590010  RH  070%=      5-min Rain = 0
KBO2 060255Z 14005KT 06/01 A3031 RMK A01 T00590010  RH  071%=      5-min Rain = 0
KBO2 060256Z 14005KT 06/01 A3031 RMK A01 T00590010  RH  071%=      5-min Rain = 0
KBO2 060257Z 14005KT 06/01 A3031 RMK A01 T00590010  RH  071%=      5-min Rain = 0
KBO2 060258Z 14005KT 06/01 A3031 RMK A01 T00590010  RH  071%=      5-min Rain = 0
KBO2 060259Z 14005KT 06/01 A3031 RMK A01 T00590010  RH  071%=      5-min Rain = 0
KBO2 060300Z 14005KT 06/01 A3031 RMK A01 T00580009  RH  071%=      5-min Rain = 0
KBO2 060301Z 14005KT 06/01 A3031 RMK A01 T00570009  RH  071%=      5-min Rain = 0
KBO2 060302Z 14005KT 06/01 A3031 RMK A01 T00570009  RH  071%=      5-min Rain = 0
KBO2 060303Z 14005KT 06/01 A3031 RMK A01 T00560009  RH  072%=      5-min Rain = 0
KBO2 060304Z 15005KT 06/01 A3031 RMK A01 T00560009  RH  072%=      5-min Rain = 0
KBO2 060305Z 15005KT 06/01 A3031 RMK A01 T00560009  RH  072%=      5-min Rain = 0
KBO2 060306Z 15005KT 06/01 A3031 RMK A01 T00560009  RH  072%=      5-min Rain = 0
KBO2 060307Z 15005KT 06/01 A3031 RMK A01 T00550009  RH  072%=      5-min Rain = 0
KBO2 060308Z 15005KT 05/01 A3031 RMK A01 T00540007  RH  072%=      5-min Rain = 0
KBO2 060309Z 15006KT 05/01 A3031 RMK A01 T00530007  RH  073%=      5-min Rain = 0
KBO2 060310Z 15006KT 05/01 A3031 RMK A01 T00520007  RH  073%=      5-min Rain = 0
KBO2 060311Z 15006KT 05/01 A3031 RMK A01 T00510008  RH  074%=      5-min Rain = 0
KBO2 060312Z 15006KT 05/01 A3031 RMK A01 T00510008  RH  074%=      5-min Rain = 0
KBO2 060313Z 15005KT 05/01 A3031 RMK A01 T00500007  RH  074%=      5-min Rain = 0
KBO2 060314Z 15006KT 05/01 A3031 RMK A01 T00490007  RH  074%=      5-min Rain = 0
KBO2 060315Z 14006KT 05/01 A3031 RMK A01 T00490007  RH  074%=      5-min Rain = 0
KBO2 060316Z 15005KT 05/01 A3031 RMK A01 T00480007  RH  075%=      5-min Rain = 0
KBO2 060317Z 15005KT 05/01 A3031 RMK A01 T00470007  RH  075%=      5-min Rain = 0
KBO2 060318Z 15005KT 05/01 A3031 RMK A01 T00470007  RH  075%=      5-min Rain = 0
KBO2 060319Z 15005KT 05/01 A3031 RMK A01 T00470008  RH  076%=      5-min Rain = 0
KBO2 060320Z 15005KT 05/01 A3031 RMK A01 T00470007  RH  076%=      5-min Rain = 0
KBO2 060321Z 15005KT 05/01 A3031 RMK A01 T00460008  RH  076%=      5-min Rain = 0
KBO2 060322Z 15005KT 05/01 A3031 RMK A01 T00470009  RH  076%=      5-min Rain = 0
KBO2 060323Z 15005KT 05/01 A3031 RMK A01 T00470008  RH  076%=      5-min Rain = 0
KBO2 060324Z 15005KT 05/01 A3031 RMK A01 T00470008  RH  076%=      5-min Rain = 0
KBO2 060325Z 15005KT 05/01 A3031 RMK A01 T00470008  RH  076%=      5-min Rain = 0
KBO2 060326Z 15005KT 05/01 A3031 RMK A01 T00470009  RH  076%=      5-min Rain = 0
KBO2 060327Z 15005KT 05/01 A3032 RMK A01 T00480009  RH  076%=      5-min Rain = 0
KBO2 060328Z 15005KT 05/01 A3032 RMK A01 T00480010  RH  076%=      5-min Rain = 0
KBO2 060329Z 15005KT 05/01 A3032 RMK A01 T00490010  RH  076%=      5-min Rain = 0
KBO2 060330Z 15005KT 05/01 A3032 RMK A01 T00500011  RH  076%=      5-min Rain = 0
KBO2 060331Z 15004KT 05/01 A3032 RMK A01 T00510011  RH  076%=      5-min Rain = 0
KBO2 060332Z 15004KT 05/01 A3032 RMK A01 T00520013  RH  076%=      5-min Rain = 0
KBO2 060333Z 15004KT 05/01 A3032 RMK A01 T00530014  RH  076%=      5-min Rain = 0
KBO2 060334Z 15004KT 05/01 A3032 RMK A01 T00540014  RH  075%=      5-min Rain = 0
KBO2 060335Z 15004KT 06/01 A3032 RMK A01 T00550014  RH  075%=      5-min Rain = 0
KBO2 060336Z 16004KT 06/02 A3032 RMK A01 T00570015  RH  075%=      5-min Rain = 0
KBO2 060337Z 16004KT 06/02 A3032 RMK A01 T00580015  RH  074%=      5-min Rain = 0
KBO2 060338Z 16004KT 06/02 A3032 RMK A01 T00590016  RH  074%=      5-min Rain = 0
KBO2 060339Z 16004KT 06/02 A3032 RMK A01 T00600017  RH  074%=      5-min Rain = 0
KBO2 060340Z 16005KT 06/02 A3032 RMK A01 T00610017  RH  073%=      5-min Rain = 0
KBO2 060341Z 16005KT 06/02 A3032 RMK A01 T00620016  RH  073%=      5-min Rain = 0
KBO2 060342Z 16005KT 06/02 A3032 RMK A01 T00620016  RH  073%=      5-min Rain = 0
KBO2 060343Z 16005KT 06/02 A3032 RMK A01 T00620017  RH  073%=      5-min Rain = 0
KBO2 060344Z 17005KT 06/02 A3032 RMK A01 T00630018  RH  073%=      5-min Rain = 0
KBO2 060345Z 16005KT 06/02 A3032 RMK A01 T00640018  RH  072%=      5-min Rain = 0
KBO2 060346Z 16005KT 06/02 A3032 RMK A01 T00640018  RH  072%=      5-min Rain = 0
KBO2 060347Z 16005KT 06/02 A3032 RMK A01 T00640017  RH  072%=      5-min Rain = 0
KBO2 060348Z 16005KT 06/02 A3032 RMK A01 T00640018  RH  072%=      5-min Rain = 0
KBO2 060349Z 16005KT 07/02 A3032 RMK A01 T00650018  RH  072%=      5-min Rain = 0
KBO2 060350Z 16005KT 07/02 A3032 RMK A01 T00650018  RH  072%=      5-min Rain = 0
KBO2 060351Z 16005KT 07/02 A3032 RMK A01 T00650018  RH  072%=      5-min Rain = 0
KBO2 060352Z 16005KT 07/02 A3032 RMK A01 T00650019  RH  072%=      5-min Rain = 0
KBO2 060353Z 16005KT 07/02 A3032 RMK A01 T00650018  RH  072%=      5-min Rain = 0
KBO2 060354Z 16005KT 06/02 A3032 RMK A01 T00640018  RH  073%=      5-min Rain = 0
KBO2 060355Z 16006KT 06/02 A3032 RMK A01 T00640019  RH  073%=      5-min Rain = 0
KBO2 060356Z 17005KT 06/02 A3032 RMK A01 T00640018  RH  073%=      5-min Rain = 0
KBO2 060357Z 17006KT 06/02 A3032 RMK A01 T00620017  RH  073%=      5-min Rain = 0
KBO2 060358Z 18005KT 06/02 A3032 RMK A01 T00610015  RH  073%=      5-min Rain = 0
KBO2 060359Z 18006KT 06/01 A3032 RMK A01 T00570013  RH  073%=      5-min Rain = 0
KBO2 060400Z 18006KT 05/01 A3032 RMK A01 T00540013  RH  075%=      5-min Rain = 0
KBO2 060401Z 18006KT 05/01 A3032 RMK A01 T00530014  RH  076%=      5-min Rain = 0
KBO2 060402Z 18006KT 05/01 A3032 RMK A01 T00520014  RH  076%=      5-min Rain = 0
KBO2 060403Z 19006KT 05/01 A3032 RMK A01 T00520014  RH  077%=      5-min Rain = 0
KBO2 060404Z 18006KT 05/01 A3032 RMK A01 T00520013  RH  076%=      5-min Rain = 0
KBO2 060405Z 19006KT 05/01 A3032 RMK A01 T00510013  RH  077%=      5-min Rain = 0
KBO2 060406Z 20005KT 05/01 A3032 RMK A01 T00500012  RH  077%=      5-min Rain = 0
KBO2 060407Z 20005KT 05/01 A3032 RMK A01 T00480011  RH  077%=      5-min Rain = 0
KBO2 060408Z 20006KT 05/01 A3032 RMK A01 T00470010  RH  077%=      5-min Rain = 0
KBO2 060409Z 20006KT 05/01 A3032 RMK A01 T00450009  RH  077%=      5-min Rain = 0
KBO2 060410Z 20006KT 04/01 A3032 RMK A01 T00430008  RH  078%=      5-min Rain = 0
KBO2 060411Z 20006KT 04/01 A3032 RMK A01 T00420007  RH  078%=      5-min Rain = 0
KBO2 060412Z 20006KT 04/01 A3032 RMK A01 T00400008  RH  079%=      5-min Rain = 0
KBO2 060413Z 20006KT 04/01 A3032 RMK A01 T00400008  RH  080%=      5-min Rain = 0
KBO2 060414Z 20006KT 04/01 A3032 RMK A01 T00390006  RH  079%=      5-min Rain = 0
KBO2 060415Z 20006KT 04/01 A3032 RMK A01 T00370006  RH  080%=      5-min Rain = 0
KBO2 060416Z 20006KT 04/01 A3032 RMK A01 T00360006  RH  081%=      5-min Rain = 0
KBO2 060417Z 20006KT 04/01 A3032 RMK A01 T00360007  RH  081%=      5-min Rain = 0
KBO2 060418Z 20006KT 04/01 A3032 RMK A01 T00360007  RH  081%=      5-min Rain = 0
KBO2 060419Z 20006KT 04/01 A3032 RMK A01 T00360007  RH  081%=      5-min Rain = 0
KBO2 060420Z 21006KT 04/01 A3032 RMK A01 T00360007  RH  081%=      5-min Rain = 0
KBO2 060421Z 21007KT 04/01 A3032 RMK A01 T00360007  RH  081%=      5-min Rain = 0
KBO2 060422Z 21007KT 04/01 A3032 RMK A01 T00360007  RH  081%=      5-min Rain = 0
KBO2 060423Z 21008KT 04/01 A3032 RMK A01 T00360008  RH  082%=      5-min Rain = 0
KBO2 060424Z 21008KT 04/01 A3032 RMK A01 T00360008  RH  082%=      5-min Rain = 0
KBO2 060425Z 21008KT 04/01 A3032 RMK A01 T00360008  RH  082%=      5-min Rain = 0
KBO2 060426Z 22008KT 04/01 A3032 RMK A01 T00360008  RH  082%=      5-min Rain = 0
KBO2 060427Z 22008KT 04/01 A3032 RMK A01 T00370009  RH  082%=      5-min Rain = 0
KBO2 060428Z 22008KT 04/01 A3032 RMK A01 T00370010  RH  082%=      5-min Rain = 0
KBO2 060429Z 22008KT 04/01 A3032 RMK A01 T00380010  RH  082%=      5-min Rain = 0
KBO2 060430Z 22008KT 04/01 A3032 RMK A01 T00380010  RH  082%=      5-min Rain = 0
KBO2 060431Z 22008KT 04/01 A3032 RMK A01 T00390010  RH  082%=      5-min Rain = 0
KBO2 060432Z 22008KT 04/01 A3032 RMK A01 T00390010  RH  081%=      5-min Rain = 0
KBO2 060433Z 21009KT 04/01 A3032 RMK A01 T00390010  RH  081%=      5-min Rain = 0
KBO2 060434Z 21009KT 04/01 A3032 RMK A01 T00390010  RH  081%=      5-min Rain = 0
KBO2 060435Z 21009KT 04/01 A3032 RMK A01 T00390010  RH  082%=      5-min Rain = 0
KBO2 060436Z 21009KT 04/01 A3032 RMK A01 T00380009  RH  081%=      5-min Rain = 0
KBO2 060437Z 21009KT 04/01 A3033 RMK A01 T00380009  RH  082%=      5-min Rain = 0
KBO2 060438Z 21009KT 04/01 A3033 RMK A01 T00380009  RH  082%=      5-min Rain = 0
KBO2 060439Z 21009KT 04/01 A3033 RMK A01 T00370009  RH  082%=      5-min Rain = 0
KBO2 060440Z 22009KT 04/01 A3033 RMK A01 T00370009  RH  082%=      5-min Rain = 0
KBO2 060441Z 22009KT 04/01 A3033 RMK A01 T00370010  RH  082%=      5-min Rain = 0
KBO2 060442Z 21009KT 04/01 A3033 RMK A01 T00370010  RH  082%=      5-min Rain = 0
KBO2 060443Z 21009KT 04/01 A3033 RMK A01 T00370010  RH  082%=      5-min Rain = 0
KBO2 060444Z 21009KT 04/01 A3033 RMK A01 T00370010  RH  082%=      5-min Rain = 0
KBO2 060445Z 21009KT 04/01 A3033 RMK A01 T00370010  RH  082%=      5-min Rain = 0
KBO2 060446Z 21008KT 04/01 A3033 RMK A01 T00370010  RH  082%=      5-min Rain = 0
KBO2 060447Z 21009KT 04/01 A3033 RMK A01 T00370010  RH  083%=      5-min Rain = 0
KBO2 060448Z 21009KT 04/01 A3033 RMK A01 T00370011  RH  083%=      5-min Rain = 0
KBO2 060449Z 21009KT 04/01 A3033 RMK A01 T00370011  RH  083%=      5-min Rain = 0
KBO2 060450Z 21009KT 04/01 A3033 RMK A01 T00370012  RH  084%=      5-min Rain = 0
KBO2 060451Z 21009KT 04/01 A3033 RMK A01 T00380012  RH  084%=      5-min Rain = 0
KBO2 060452Z 21008KT 04/01 A3033 RMK A01 T00380012  RH  083%=      5-min Rain = 0
KBO2 060453Z 21008KT 04/01 A3033 RMK A01 T00380013  RH  084%=      5-min Rain = 0
KBO2 060454Z 21008KT 04/01 A3033 RMK A01 T00380013  RH  083%=      5-min Rain = 0
KBO2 060455Z 21008KT 04/01 A3033 RMK A01 T00380012  RH  084%=      5-min Rain = 0
KBO2 060456Z 21008KT 04/01 A3033 RMK A01 T00380012  RH  084%=      5-min Rain = 0
KBO2 060457Z 21009KT 04/01 A3033 RMK A01 T00370013  RH  084%=      5-min Rain = 0
KBO2 060458Z 21008KT 04/01 A3033 RMK A01 T00370013  RH  084%=      5-min Rain = 0
KBO2 060459Z 21008KT 04/01 A3033 RMK A01 T00380013  RH  084%=      5-min Rain = 0
KBO2 060500Z 21008KT 04/01 A3033 RMK A01 T00380012  RH  083%=      5-min Rain = 0
KBO2 060501Z 21008KT 04/01 A3033 RMK A01 T00380012  RH  083%=      5-min Rain = 0
KBO2 060502Z 21008KT 04/01 A3033 RMK A01 T00370012  RH  083%=      5-min Rain = 0
KBO2 060503Z 21008KT 04/01 A3033 RMK A01 T00370012  RH  084%=      5-min Rain = 0
KBO2 060504Z 21009KT 04/01 A3033 RMK A01 T00370013  RH  084%=      5-min Rain = 0
KBO2 060505Z 21009KT 04/01 A3033 RMK A01 T00380013  RH  084%=      5-min Rain = 0
KBO2 060506Z 21009KT 04/01 A3033 RMK A01 T00390014  RH  084%=      5-min Rain = 0
KBO2 060507Z 21009KT 04/01 A3033 RMK A01 T00400014  RH  083%=      5-min Rain = 0
KBO2 060508Z 21009KT 04/01 A3033 RMK A01 T00400014  RH  083%=      5-min Rain = 0
KBO2 060509Z 21009KT 04/01 A3033 RMK A01 T00410013  RH  083%=      5-min Rain = 0
KBO2 060510Z 21009KT 04/01 A3033 RMK A01 T00410013  RH  082%=      5-min Rain = 0
KBO2 060511Z 21009KT 04/01 A3033 RMK A01 T00410013  RH  082%=      5-min Rain = 0
KBO2 060512Z 21009KT 04/01 A3033 RMK A01 T00410013  RH  082%=      5-min Rain = 0
KBO2 060513Z 21009KT 04/01 A3033 RMK A01 T00410013  RH  082%=      5-min Rain = 0
KBO2 060514Z 21009KT 04/01 A3033 RMK A01 T00410013  RH  082%=      5-min Rain = 0
KBO2 060515Z 21009KT 04/01 A3033 RMK A01 T00410014  RH  082%=      5-min Rain = 0
KBO2 060516Z 21008KT 04/01 A3033 RMK A01 T00420014  RH  082%=      5-min Rain = 0
KBO2 060517Z 21009KT 04/01 A3033 RMK A01 T00420014  RH  082%=      5-min Rain = 0
KBO2 060518Z 21009KT 04/02 A3033 RMK A01 T00420015  RH  082%=      5-min Rain = 0
KBO2 060519Z 21009KT 04/01 A3033 RMK A01 T00420014  RH  082%=      5-min Rain = 0
KBO2 060520Z 21009KT 04/02 A3033 RMK A01 T00430015  RH  082%=      5-min Rain = 0
KBO2 060521Z 21009KT 04/02 A3033 RMK A01 T00430015  RH  082%=      5-min Rain = 0
KBO2 060522Z 20009KT 04/02 A3033 RMK A01 T00430015  RH  082%=      5-min Rain = 0
KBO2 060523Z 20009KT 04/02 A3033 RMK A01 T00430015  RH  082%=      5-min Rain = 0
KBO2 060524Z 20009KT 04/02 A3033 RMK A01 T00430016  RH  082%=      5-min Rain = 0
KBO2 060525Z 20009KT 04/02 A3033 RMK A01 T00430016  RH  082%=      5-min Rain = 0
KBO2 060526Z 20008KT 04/02 A3033 RMK A01 T00430016  RH  083%=      5-min Rain = 0
KBO2 060527Z 20007KT 04/02 A3033 RMK A01 T00430016  RH  083%=      5-min Rain = 0
KBO2 060528Z 20006KT 04/02 A3033 RMK A01 T00430015  RH  082%=      5-min Rain = 0
KBO2 060529Z 20006KT 04/01 A3033 RMK A01 T00400009  RH  080%=      5-min Rain = 0
KBO2 060530Z 20006KT 04/01 A3033 RMK A01 T00380008  RH  081%=      5-min Rain = 0
KBO2 060531Z 20006KT 04/01 A3033 RMK A01 T00360009  RH  083%=      5-min Rain = 0
KBO2 060532Z 20006KT 03/01 A3033 RMK A01 T00340010  RH  084%=      5-min Rain = 0
KBO2 060533Z 20007KT 03/01 A3033 RMK A01 T00340011  RH  085%=      5-min Rain = 0
KBO2 060534Z 20007KT 03/01 A3033 RMK A01 T00340012  RH  085%=      5-min Rain = 0
KBO2 060535Z 20008KT 04/01 A3033 RMK A01 T00350014  RH  086%=      5-min Rain = 0
KBO2 060536Z 19006KT 04/01 A3033 RMK A01 T00360013  RH  085%=      5-min Rain = 0
KBO2 060537Z 19007KT 04/01 A3033 RMK A01 T00360012  RH  085%=      5-min Rain = 0
KBO2 060538Z 20009KT 04/01 A3033 RMK A01 T00360014  RH  086%=      5-min Rain = 0
KBO2 060539Z 19007KT 04/01 A3033 RMK A01 T00370012  RH  084%=      5-min Rain = 0
KBO2 060540Z 18005KT 04/01 A3033 RMK A01 T00360009  RH  083%=      5-min Rain = 0
KBO2 060541Z 18005KT 03/01 A3033 RMK A01 T00320005  RH  083%=      5-min Rain = 0
KBO2 060542Z 18005KT 03/00 A3033 RMK A01 T00280001  RH  082%=      5-min Rain = 0
KBO2 060543Z 18005KT 03/00 A3033 RMK A01 T00250001  RH  084%=      5-min Rain = 0
KBO2 060544Z 18005KT 02/00 A3033 RMK A01 T00230003  RH  086%=      5-min Rain = 0
KBO2 060545Z 19005KT 02/01 A3033 RMK A01 T00230005  RH  088%=      5-min Rain = 0
KBO2 060546Z 19005KT 02/01 A3033 RMK A01 T00230007  RH  089%=      5-min Rain = 0
KBO2 060547Z 19005KT 02/01 A3033 RMK A01 T00240008  RH  089%=      5-min Rain = 0
KBO2 060548Z 19006KT 03/01 A3032 RMK A01 T00250009  RH  089%=      5-min Rain = 0
KBO2 060549Z 20006KT 03/01 A3032 RMK A01 T00260010  RH  089%=      5-min Rain = 0
KBO2 060550Z 20006KT 03/01 A3032 RMK A01 T00270010  RH  088%=      5-min Rain = 0
KBO2 060551Z 20006KT 03/01 A3032 RMK A01 T00280010  RH  088%=      5-min Rain = 0
KBO2 060552Z 20006KT 03/01 A3032 RMK A01 T00290010  RH  087%=      5-min Rain = 0
KBO2 060553Z 20006KT 03/01 A3032 RMK A01 T00290009  RH  087%=      5-min Rain = 0
KBO2 060554Z 20006KT 03/01 A3032 RMK A01 T00290010  RH  087%=      5-min Rain = 0
KBO2 060555Z 20006KT 03/01 A3032 RMK A01 T00290009  RH  087%=      5-min Rain = 0
KBO2 060556Z 20006KT 03/01 A3032 RMK A01 T00290008  RH  086%=      5-min Rain = 0
KBO2 060557Z 20006KT 03/01 A3033 RMK A01 T00290010  RH  087%=      5-min Rain = 0
KBO2 060558Z 20006KT 03/01 A3033 RMK A01 T00290012  RH  088%=      5-min Rain = 0
KBO2 060559Z 21006KT 03/01 A3033 RMK A01 T00310014  RH  089%=      5-min Rain = 0

Page generated in 0.183 seconds.